<?xml version="1.0" encoding="UTF-8" standalone="no" ?>
<gpx xmlns="http://www.topografix.com/GPX/1/1" xmlns:xsi="http://www.w3.org/2001/XMLSchema-instance" xsi:schemaLocation="http://www.topografix.com/GPX/1/1 http://www.topografix.com/GPX/1/1/gpx.xsd" version="1.1" creator="VisuGPX - https://www.visugpx.com">
  <metadata>
    <name>Hermones  Forchat  Chateaux des Allinges </name>
  </metadata>
  <trk>
    <name><![CDATA[Hermones  Forchat  Chateaux des Allinges sur TraceDeTrail.fr]]></name>
    <extensions>
      <line xmlns="http://www.topografix.com/GPX/gpx_style/0/2">
        <color>0000FF</color>
        <width>4</width>
      </line>
    </extensions>
    <trkseg>
      <trkpt lat="46.35162" lon="6.51929">
        <ele>612</ele>
        <time>2000-01-01T01:28:11.000Z</time>
      </trkpt>
      <trkpt lat="46.35132" lon="6.51951">
        <ele>614</ele>
        <time>2000-01-01T01:28:21.000Z</time>
      </trkpt>
      <trkpt lat="46.35102" lon="6.51973">
        <ele>619</ele>
        <time>2000-01-01T01:28:31.000Z</time>
      </trkpt>
      <trkpt lat="46.35054" lon="6.52008">
        <ele>624</ele>
        <time>2000-01-01T01:28:41.000Z</time>
      </trkpt>
      <trkpt lat="46.3504" lon="6.52046">
        <ele>630</ele>
        <time>2000-01-01T01:28:51.000Z</time>
      </trkpt>
      <trkpt lat="46.35014" lon="6.52111">
        <ele>630</ele>
        <time>2000-01-01T01:29:01.000Z</time>
      </trkpt>
      <trkpt lat="46.35028" lon="6.52151">
        <ele>629</ele>
        <time>2000-01-01T01:29:11.000Z</time>
      </trkpt>
      <trkpt lat="46.35054" lon="6.52225">
        <ele>628</ele>
        <time>2000-01-01T01:29:21.000Z</time>
      </trkpt>
      <trkpt lat="46.35039" lon="6.52271">
        <ele>627</ele>
        <time>2000-01-01T01:29:31.000Z</time>
      </trkpt>
      <trkpt lat="46.35024" lon="6.52316">
        <ele>631</ele>
        <time>2000-01-01T01:29:41.000Z</time>
      </trkpt>
      <trkpt lat="46.34993" lon="6.52405">
        <ele>635</ele>
        <time>2000-01-01T01:29:51.000Z</time>
      </trkpt>
      <trkpt lat="46.34962" lon="6.52431">
        <ele>635</ele>
        <time>2000-01-01T01:30:01.000Z</time>
      </trkpt>
      <trkpt lat="46.34931" lon="6.52456">
        <ele>635</ele>
        <time>2000-01-01T01:30:11.000Z</time>
      </trkpt>
      <trkpt lat="46.34899" lon="6.52481">
        <ele>636</ele>
        <time>2000-01-01T01:30:21.000Z</time>
      </trkpt>
      <trkpt lat="46.34857" lon="6.52515">
        <ele>632</ele>
        <time>2000-01-01T01:30:31.000Z</time>
      </trkpt>
      <trkpt lat="46.34852" lon="6.5257">
        <ele>634</ele>
        <time>2000-01-01T01:30:41.000Z</time>
      </trkpt>
      <trkpt lat="46.34846" lon="6.52625">
        <ele>636</ele>
        <time>2000-01-01T01:30:51.000Z</time>
      </trkpt>
      <trkpt lat="46.3484" lon="6.52681">
        <ele>646</ele>
        <time>2000-01-01T01:31:01.000Z</time>
      </trkpt>
      <trkpt lat="46.34835" lon="6.52736">
        <ele>644</ele>
        <time>2000-01-01T01:31:11.000Z</time>
      </trkpt>
      <trkpt lat="46.34825" lon="6.52837">
        <ele>643</ele>
        <time>2000-01-01T01:31:21.000Z</time>
      </trkpt>
      <trkpt lat="46.34798" lon="6.52846">
        <ele>639</ele>
        <time>2000-01-01T01:31:31.000Z</time>
      </trkpt>
      <trkpt lat="46.34759" lon="6.5286">
        <ele>639</ele>
        <time>2000-01-01T01:31:41.000Z</time>
      </trkpt>
      <trkpt lat="46.34733" lon="6.52835">
        <ele>639</ele>
        <time>2000-01-01T01:31:51.000Z</time>
      </trkpt>
      <trkpt lat="46.34707" lon="6.5281">
        <ele>643</ele>
        <time>2000-01-01T01:32:01.000Z</time>
      </trkpt>
      <trkpt lat="46.34676" lon="6.52781">
        <ele>654</ele>
        <time>2000-01-01T01:32:11.000Z</time>
      </trkpt>
      <trkpt lat="46.34647" lon="6.52799">
        <ele>660</ele>
        <time>2000-01-01T01:32:21.000Z</time>
      </trkpt>
      <trkpt lat="46.34617" lon="6.52818">
        <ele>657</ele>
        <time>2000-01-01T01:32:31.000Z</time>
      </trkpt>
      <trkpt lat="46.3458" lon="6.52841">
        <ele>655</ele>
        <time>2000-01-01T01:32:41.000Z</time>
      </trkpt>
      <trkpt lat="46.34562" lon="6.52875">
        <ele>655</ele>
        <time>2000-01-01T01:32:51.000Z</time>
      </trkpt>
      <trkpt lat="46.34531" lon="6.52935">
        <ele>656</ele>
        <time>2000-01-01T01:33:01.000Z</time>
      </trkpt>
      <trkpt lat="46.34504" lon="6.52933">
        <ele>668</ele>
        <time>2000-01-01T01:33:11.000Z</time>
      </trkpt>
      <trkpt lat="46.34466" lon="6.52929">
        <ele>664</ele>
        <time>2000-01-01T01:33:21.000Z</time>
      </trkpt>
      <trkpt lat="46.34465" lon="6.52969">
        <ele>661</ele>
        <time>2000-01-01T01:33:31.000Z</time>
      </trkpt>
      <trkpt lat="46.34463" lon="6.5303">
        <ele>666</ele>
        <time>2000-01-01T01:33:41.000Z</time>
      </trkpt>
      <trkpt lat="46.3442" lon="6.53036">
        <ele>666</ele>
        <time>2000-01-01T01:33:51.000Z</time>
      </trkpt>
      <trkpt lat="46.3443" lon="6.53076">
        <ele>666</ele>
        <time>2000-01-01T01:34:01.000Z</time>
      </trkpt>
      <trkpt lat="46.34447" lon="6.53146">
        <ele>666</ele>
        <time>2000-01-01T01:34:11.000Z</time>
      </trkpt>
      <trkpt lat="46.34424" lon="6.53109">
        <ele>667</ele>
        <time>2000-01-01T01:34:21.000Z</time>
      </trkpt>
      <trkpt lat="46.34401" lon="6.53073">
        <ele>674</ele>
        <time>2000-01-01T01:34:31.000Z</time>
      </trkpt>
      <trkpt lat="46.34361" lon="6.53011">
        <ele>675</ele>
        <time>2000-01-01T01:34:41.000Z</time>
      </trkpt>
      <trkpt lat="46.34385" lon="6.52989">
        <ele>677</ele>
        <time>2000-01-01T01:34:51.000Z</time>
      </trkpt>
      <trkpt lat="46.34422" lon="6.52957">
        <ele>678</ele>
        <time>2000-01-01T01:35:01.000Z</time>
      </trkpt>
      <trkpt lat="46.34431" lon="6.52914">
        <ele>675</ele>
        <time>2000-01-01T01:35:11.000Z</time>
      </trkpt>
      <trkpt lat="46.34448" lon="6.5283">
        <ele>677</ele>
        <time>2000-01-01T01:35:21.000Z</time>
      </trkpt>
      <trkpt lat="46.34424" lon="6.5283">
        <ele>678</ele>
        <time>2000-01-01T01:35:31.000Z</time>
      </trkpt>
      <trkpt lat="46.34396" lon="6.5283">
        <ele>679</ele>
        <time>2000-01-01T01:35:41.000Z</time>
      </trkpt>
      <trkpt lat="46.34368" lon="6.52866">
        <ele>680</ele>
        <time>2000-01-01T01:35:51.000Z</time>
      </trkpt>
      <trkpt lat="46.34339" lon="6.52901">
        <ele>681</ele>
        <time>2000-01-01T01:36:01.000Z</time>
      </trkpt>
      <trkpt lat="46.34311" lon="6.52937">
        <ele>685</ele>
        <time>2000-01-01T01:36:11.000Z</time>
      </trkpt>
      <trkpt lat="46.34282" lon="6.52973">
        <ele>686</ele>
        <time>2000-01-01T01:36:21.000Z</time>
      </trkpt>
      <trkpt lat="46.34247" lon="6.53017">
        <ele>686</ele>
        <time>2000-01-01T01:36:31.000Z</time>
      </trkpt>
      <trkpt lat="46.34213" lon="6.53041">
        <ele>694</ele>
        <time>2000-01-01T01:36:41.000Z</time>
      </trkpt>
      <trkpt lat="46.34178" lon="6.53064">
        <ele>703</ele>
        <time>2000-01-01T01:36:51.000Z</time>
      </trkpt>
      <trkpt lat="46.34144" lon="6.53088">
        <ele>707</ele>
        <time>2000-01-01T01:37:01.000Z</time>
      </trkpt>
      <trkpt lat="46.3411" lon="6.53112">
        <ele>711</ele>
        <time>2000-01-01T01:37:11.000Z</time>
      </trkpt>
      <trkpt lat="46.3406" lon="6.53146">
        <ele>714</ele>
        <time>2000-01-01T01:37:21.000Z</time>
      </trkpt>
      <trkpt lat="46.34036" lon="6.53174">
        <ele>717</ele>
        <time>2000-01-01T01:37:31.000Z</time>
      </trkpt>
      <trkpt lat="46.33989" lon="6.53232">
        <ele>717</ele>
        <time>2000-01-01T01:37:41.000Z</time>
      </trkpt>
      <trkpt lat="46.33974" lon="6.53283">
        <ele>717</ele>
        <time>2000-01-01T01:37:51.000Z</time>
      </trkpt>
      <trkpt lat="46.33958" lon="6.53335">
        <ele>720</ele>
        <time>2000-01-01T01:38:01.000Z</time>
      </trkpt>
      <trkpt lat="46.33943" lon="6.53387">
        <ele>722</ele>
        <time>2000-01-01T01:38:11.000Z</time>
      </trkpt>
      <trkpt lat="46.33928" lon="6.53438">
        <ele>722</ele>
        <time>2000-01-01T01:38:21.000Z</time>
      </trkpt>
      <trkpt lat="46.33912" lon="6.5349">
        <ele>731</ele>
        <time>2000-01-01T01:38:31.000Z</time>
      </trkpt>
      <trkpt lat="46.33896" lon="6.53545">
        <ele>733</ele>
        <time>2000-01-01T01:38:41.000Z</time>
      </trkpt>
      <trkpt lat="46.33903" lon="6.53598">
        <ele>741</ele>
        <time>2000-01-01T01:38:51.000Z</time>
      </trkpt>
      <trkpt lat="46.33909" lon="6.53651">
        <ele>747</ele>
        <time>2000-01-01T01:39:01.000Z</time>
      </trkpt>
      <trkpt lat="46.33916" lon="6.53705">
        <ele>750</ele>
        <time>2000-01-01T01:39:11.000Z</time>
      </trkpt>
      <trkpt lat="46.33923" lon="6.53758">
        <ele>750</ele>
        <time>2000-01-01T01:39:21.000Z</time>
      </trkpt>
      <trkpt lat="46.3393" lon="6.53815">
        <ele>752</ele>
        <time>2000-01-01T01:39:31.000Z</time>
      </trkpt>
      <trkpt lat="46.33936" lon="6.5387">
        <ele>753</ele>
        <time>2000-01-01T01:39:41.000Z</time>
      </trkpt>
      <trkpt lat="46.33942" lon="6.53924">
        <ele>755</ele>
        <time>2000-01-01T01:39:51.000Z</time>
      </trkpt>
      <trkpt lat="46.33947" lon="6.53979">
        <ele>769</ele>
        <time>2000-01-01T01:40:01.000Z</time>
      </trkpt>
      <trkpt lat="46.33953" lon="6.54033">
        <ele>779</ele>
        <time>2000-01-01T01:40:11.000Z</time>
      </trkpt>
      <trkpt lat="46.33962" lon="6.54118">
        <ele>779</ele>
        <time>2000-01-01T01:40:21.000Z</time>
      </trkpt>
      <trkpt lat="46.33957" lon="6.54174">
        <ele>783</ele>
        <time>2000-01-01T01:40:31.000Z</time>
      </trkpt>
      <trkpt lat="46.33951" lon="6.5423">
        <ele>787</ele>
        <time>2000-01-01T01:40:41.000Z</time>
      </trkpt>
      <trkpt lat="46.33946" lon="6.54286">
        <ele>799</ele>
        <time>2000-01-01T01:40:51.000Z</time>
      </trkpt>
      <trkpt lat="46.3394" lon="6.54343">
        <ele>799</ele>
        <time>2000-01-01T01:41:01.000Z</time>
      </trkpt>
      <trkpt lat="46.33935" lon="6.54399">
        <ele>797</ele>
        <time>2000-01-01T01:41:11.000Z</time>
      </trkpt>
      <trkpt lat="46.33927" lon="6.54476">
        <ele>799</ele>
        <time>2000-01-01T01:41:21.000Z</time>
      </trkpt>
      <trkpt lat="46.33891" lon="6.54491">
        <ele>801</ele>
        <time>2000-01-01T01:41:31.000Z</time>
      </trkpt>
      <trkpt lat="46.33855" lon="6.54505">
        <ele>808</ele>
        <time>2000-01-01T01:41:41.000Z</time>
      </trkpt>
      <trkpt lat="46.33818" lon="6.5452">
        <ele>831</ele>
        <time>2000-01-01T01:41:51.000Z</time>
      </trkpt>
      <trkpt lat="46.33782" lon="6.54534">
        <ele>831</ele>
        <time>2000-01-01T01:42:01.000Z</time>
      </trkpt>
      <trkpt lat="46.3374" lon="6.54551">
        <ele>819</ele>
        <time>2000-01-01T01:42:11.000Z</time>
      </trkpt>
      <trkpt lat="46.33741" lon="6.54606">
        <ele>809</ele>
        <time>2000-01-01T01:42:21.000Z</time>
      </trkpt>
      <trkpt lat="46.33742" lon="6.54662">
        <ele>806</ele>
        <time>2000-01-01T01:42:31.000Z</time>
      </trkpt>
      <trkpt lat="46.33743" lon="6.54717">
        <ele>806</ele>
        <time>2000-01-01T01:42:41.000Z</time>
      </trkpt>
      <trkpt lat="46.33743" lon="6.54772">
        <ele>807</ele>
        <time>2000-01-01T01:42:51.000Z</time>
      </trkpt>
      <trkpt lat="46.33745" lon="6.54856">
        <ele>807</ele>
        <time>2000-01-01T01:43:01.000Z</time>
      </trkpt>
      <trkpt lat="46.33719" lon="6.54898">
        <ele>808</ele>
        <time>2000-01-01T01:43:11.000Z</time>
      </trkpt>
      <trkpt lat="46.33693" lon="6.54941">
        <ele>814</ele>
        <time>2000-01-01T01:43:21.000Z</time>
      </trkpt>
      <trkpt lat="46.33668" lon="6.54983">
        <ele>814</ele>
        <time>2000-01-01T01:43:31.000Z</time>
      </trkpt>
      <trkpt lat="46.33642" lon="6.55026">
        <ele>814</ele>
        <time>2000-01-01T01:43:41.000Z</time>
      </trkpt>
      <trkpt lat="46.33616" lon="6.55068">
        <ele>815</ele>
        <time>2000-01-01T01:43:51.000Z</time>
      </trkpt>
      <trkpt lat="46.33586" lon="6.55118">
        <ele>813</ele>
        <time>2000-01-01T01:44:01.000Z</time>
      </trkpt>
      <trkpt lat="46.33572" lon="6.55174">
        <ele>820</ele>
        <time>2000-01-01T01:44:11.000Z</time>
      </trkpt>
      <trkpt lat="46.33558" lon="6.55231">
        <ele>827</ele>
        <time>2000-01-01T01:44:21.000Z</time>
      </trkpt>
      <trkpt lat="46.33544" lon="6.55287">
        <ele>828</ele>
        <time>2000-01-01T01:44:31.000Z</time>
      </trkpt>
      <trkpt lat="46.3353" lon="6.55344">
        <ele>830</ele>
        <time>2000-01-01T01:44:41.000Z</time>
      </trkpt>
      <trkpt lat="46.33516" lon="6.55401">
        <ele>844</ele>
        <time>2000-01-01T01:44:51.000Z</time>
      </trkpt>
      <trkpt lat="46.33502" lon="6.55457">
        <ele>846</ele>
        <time>2000-01-01T01:45:01.000Z</time>
      </trkpt>
      <trkpt lat="46.33488" lon="6.55514">
        <ele>837</ele>
        <time>2000-01-01T01:45:11.000Z</time>
      </trkpt>
      <trkpt lat="46.33474" lon="6.5557">
        <ele>829</ele>
        <time>2000-01-01T01:45:21.000Z</time>
      </trkpt>
      <trkpt lat="46.33456" lon="6.55643">
        <ele>829</ele>
        <time>2000-01-01T01:45:31.000Z</time>
      </trkpt>
      <trkpt lat="46.33431" lon="6.55687">
        <ele>831</ele>
        <time>2000-01-01T01:45:41.000Z</time>
      </trkpt>
      <trkpt lat="46.33407" lon="6.55731">
        <ele>834</ele>
        <time>2000-01-01T01:45:51.000Z</time>
      </trkpt>
      <trkpt lat="46.33383" lon="6.55775">
        <ele>832</ele>
        <time>2000-01-01T01:46:01.000Z</time>
      </trkpt>
      <trkpt lat="46.33358" lon="6.55819">
        <ele>834</ele>
        <time>2000-01-01T01:46:11.000Z</time>
      </trkpt>
      <trkpt lat="46.33334" lon="6.55863">
        <ele>836</ele>
        <time>2000-01-01T01:46:21.000Z</time>
      </trkpt>
      <trkpt lat="46.33308" lon="6.55909">
        <ele>847</ele>
        <time>2000-01-01T01:46:31.000Z</time>
      </trkpt>
      <trkpt lat="46.3329" lon="6.55959">
        <ele>849</ele>
        <time>2000-01-01T01:46:41.000Z</time>
      </trkpt>
      <trkpt lat="46.33272" lon="6.56008">
        <ele>849</ele>
        <time>2000-01-01T01:46:51.000Z</time>
      </trkpt>
      <trkpt lat="46.33255" lon="6.56057">
        <ele>851</ele>
        <time>2000-01-01T01:47:01.000Z</time>
      </trkpt>
      <trkpt lat="46.33237" lon="6.56107">
        <ele>850</ele>
        <time>2000-01-01T01:47:11.000Z</time>
      </trkpt>
      <trkpt lat="46.33207" lon="6.56191">
        <ele>850</ele>
        <time>2000-01-01T01:47:21.000Z</time>
      </trkpt>
      <trkpt lat="46.33167" lon="6.56192">
        <ele>855</ele>
        <time>2000-01-01T01:47:31.000Z</time>
      </trkpt>
      <trkpt lat="46.33126" lon="6.56193">
        <ele>860</ele>
        <time>2000-01-01T01:47:41.000Z</time>
      </trkpt>
      <trkpt lat="46.33086" lon="6.56195">
        <ele>860</ele>
        <time>2000-01-01T01:47:51.000Z</time>
      </trkpt>
      <trkpt lat="46.33046" lon="6.56196">
        <ele>860</ele>
        <time>2000-01-01T01:48:01.000Z</time>
      </trkpt>
      <trkpt lat="46.33005" lon="6.56198">
        <ele>854</ele>
        <time>2000-01-01T01:48:11.000Z</time>
      </trkpt>
      <trkpt lat="46.32965" lon="6.56199">
        <ele>854</ele>
        <time>2000-01-01T01:48:21.000Z</time>
      </trkpt>
      <trkpt lat="46.32903" lon="6.56201">
        <ele>864</ele>
        <time>2000-01-01T01:48:31.000Z</time>
      </trkpt>
      <trkpt lat="46.32874" lon="6.56178">
        <ele>866</ele>
        <time>2000-01-01T01:48:41.000Z</time>
      </trkpt>
      <trkpt lat="46.32845" lon="6.56154">
        <ele>864</ele>
        <time>2000-01-01T01:48:51.000Z</time>
      </trkpt>
      <trkpt lat="46.32801" lon="6.56118">
        <ele>863</ele>
        <time>2000-01-01T01:49:01.000Z</time>
      </trkpt>
      <trkpt lat="46.32809" lon="6.56076">
        <ele>863</ele>
        <time>2000-01-01T01:49:11.000Z</time>
      </trkpt>
      <trkpt lat="46.32823" lon="6.56004">
        <ele>876</ele>
        <time>2000-01-01T01:49:21.000Z</time>
      </trkpt>
      <trkpt lat="46.3285" lon="6.55991">
        <ele>881</ele>
        <time>2000-01-01T01:49:31.000Z</time>
      </trkpt>
      <trkpt lat="46.32893" lon="6.55972">
        <ele>886</ele>
        <time>2000-01-01T01:49:41.000Z</time>
      </trkpt>
      <trkpt lat="46.32915" lon="6.55937">
        <ele>902</ele>
        <time>2000-01-01T01:49:51.000Z</time>
      </trkpt>
      <trkpt lat="46.32925" lon="6.55882">
        <ele>904</ele>
        <time>2000-01-01T01:50:01.000Z</time>
      </trkpt>
      <trkpt lat="46.32935" lon="6.55826">
        <ele>916</ele>
        <time>2000-01-01T01:50:11.000Z</time>
      </trkpt>
      <trkpt lat="46.32944" lon="6.5577">
        <ele>938</ele>
        <time>2000-01-01T01:50:21.000Z</time>
      </trkpt>
      <trkpt lat="46.32954" lon="6.55715">
        <ele>947</ele>
        <time>2000-01-01T01:50:31.000Z</time>
      </trkpt>
      <trkpt lat="46.32964" lon="6.55659">
        <ele>968</ele>
        <time>2000-01-01T01:50:41.000Z</time>
      </trkpt>
      <trkpt lat="46.32982" lon="6.5556">
        <ele>984</ele>
        <time>2000-01-01T01:50:51.000Z</time>
      </trkpt>
      <trkpt lat="46.3298" lon="6.55509">
        <ele>1002</ele>
        <time>2000-01-01T01:51:01.000Z</time>
      </trkpt>
      <trkpt lat="46.32979" lon="6.55458">
        <ele>1004</ele>
        <time>2000-01-01T01:51:11.000Z</time>
      </trkpt>
      <trkpt lat="46.32977" lon="6.55407">
        <ele>1017</ele>
        <time>2000-01-01T01:51:21.000Z</time>
      </trkpt>
      <trkpt lat="46.32976" lon="6.55352">
        <ele>1025</ele>
        <time>2000-01-01T01:51:31.000Z</time>
      </trkpt>
      <trkpt lat="46.32999" lon="6.55321">
        <ele>1039</ele>
        <time>2000-01-01T01:51:41.000Z</time>
      </trkpt>
      <trkpt lat="46.33022" lon="6.5529">
        <ele>1047</ele>
        <time>2000-01-01T01:51:51.000Z</time>
      </trkpt>
      <trkpt lat="46.33047" lon="6.55257">
        <ele>1056</ele>
        <time>2000-01-01T01:52:01.000Z</time>
      </trkpt>
      <trkpt lat="46.33029" lon="6.55214">
        <ele>1064</ele>
        <time>2000-01-01T01:52:11.000Z</time>
      </trkpt>
      <trkpt lat="46.3301" lon="6.5517">
        <ele>1073</ele>
        <time>2000-01-01T01:52:21.000Z</time>
      </trkpt>
      <trkpt lat="46.32992" lon="6.55127">
        <ele>1081</ele>
        <time>2000-01-01T01:52:31.000Z</time>
      </trkpt>
      <trkpt lat="46.32973" lon="6.55081">
        <ele>1085</ele>
        <time>2000-01-01T01:52:41.000Z</time>
      </trkpt>
      <trkpt lat="46.33006" lon="6.55081">
        <ele>1090</ele>
        <time>2000-01-01T01:52:51.000Z</time>
      </trkpt>
      <trkpt lat="46.33039" lon="6.5508">
        <ele>1093</ele>
        <time>2000-01-01T01:53:01.000Z</time>
      </trkpt>
      <trkpt lat="46.33087" lon="6.55079">
        <ele>1109</ele>
        <time>2000-01-01T01:53:11.000Z</time>
      </trkpt>
      <trkpt lat="46.3307" lon="6.55035">
        <ele>1110</ele>
        <time>2000-01-01T01:53:21.000Z</time>
      </trkpt>
      <trkpt lat="46.33052" lon="6.54991">
        <ele>1115</ele>
        <time>2000-01-01T01:53:31.000Z</time>
      </trkpt>
      <trkpt lat="46.33019" lon="6.54905">
        <ele>1139</ele>
        <time>2000-01-01T01:53:41.000Z</time>
      </trkpt>
      <trkpt lat="46.33036" lon="6.54862">
        <ele>1149</ele>
        <time>2000-01-01T01:53:51.000Z</time>
      </trkpt>
      <trkpt lat="46.33015" lon="6.5483">
        <ele>1150</ele>
        <time>2000-01-01T01:54:01.000Z</time>
      </trkpt>
      <trkpt lat="46.32973" lon="6.54768">
        <ele>1178</ele>
        <time>2000-01-01T01:54:11.000Z</time>
      </trkpt>
      <trkpt lat="46.32978" lon="6.54722">
        <ele>1180</ele>
        <time>2000-01-01T01:54:21.000Z</time>
      </trkpt>
      <trkpt lat="46.32984" lon="6.54677">
        <ele>1191</ele>
        <time>2000-01-01T01:54:31.000Z</time>
      </trkpt>
      <trkpt lat="46.32991" lon="6.54622">
        <ele>1202</ele>
        <time>2000-01-01T01:54:41.000Z</time>
      </trkpt>
      <trkpt lat="46.32975" lon="6.54576">
        <ele>1207</ele>
        <time>2000-01-01T01:54:51.000Z</time>
      </trkpt>
      <trkpt lat="46.32958" lon="6.5453">
        <ele>1209</ele>
        <time>2000-01-01T01:55:01.000Z</time>
      </trkpt>
      <trkpt lat="46.32942" lon="6.54484">
        <ele>1212</ele>
        <time>2000-01-01T01:55:11.000Z</time>
      </trkpt>
      <trkpt lat="46.32922" lon="6.54427">
        <ele>1217</ele>
        <time>2000-01-01T01:55:21.000Z</time>
      </trkpt>
      <trkpt lat="46.32905" lon="6.54394">
        <ele>1225</ele>
        <time>2000-01-01T01:55:31.000Z</time>
      </trkpt>
      <trkpt lat="46.32879" lon="6.54345">
        <ele>1226</ele>
        <time>2000-01-01T01:55:41.000Z</time>
      </trkpt>
      <trkpt lat="46.32853" lon="6.54317">
        <ele>1228</ele>
        <time>2000-01-01T01:55:51.000Z</time>
      </trkpt>
      <trkpt lat="46.32827" lon="6.54289">
        <ele>1232</ele>
        <time>2000-01-01T01:56:01.000Z</time>
      </trkpt>
      <trkpt lat="46.32792" lon="6.54251">
        <ele>1232</ele>
        <time>2000-01-01T01:56:11.000Z</time>
      </trkpt>
      <trkpt lat="46.32755" lon="6.54258">
        <ele>1233</ele>
        <time>2000-01-01T01:56:21.000Z</time>
      </trkpt>
      <trkpt lat="46.32718" lon="6.54264">
        <ele>1243</ele>
        <time>2000-01-01T01:56:31.000Z</time>
      </trkpt>
      <trkpt lat="46.32681" lon="6.54271">
        <ele>1245</ele>
        <time>2000-01-01T01:56:41.000Z</time>
      </trkpt>
      <trkpt lat="46.32644" lon="6.54278">
        <ele>1251</ele>
        <time>2000-01-01T01:56:51.000Z</time>
      </trkpt>
      <trkpt lat="46.32602" lon="6.54285">
        <ele>1253</ele>
        <time>2000-01-01T01:57:01.000Z</time>
      </trkpt>
      <trkpt lat="46.32582" lon="6.54246">
        <ele>1252</ele>
        <time>2000-01-01T01:57:11.000Z</time>
      </trkpt>
      <trkpt lat="46.32561" lon="6.54206">
        <ele>1251</ele>
        <time>2000-01-01T01:57:21.000Z</time>
      </trkpt>
      <trkpt lat="46.32525" lon="6.54137">
        <ele>1254</ele>
        <time>2000-01-01T01:57:31.000Z</time>
      </trkpt>
      <trkpt lat="46.32498" lon="6.54105">
        <ele>1257</ele>
        <time>2000-01-01T01:57:41.000Z</time>
      </trkpt>
      <trkpt lat="46.32471" lon="6.54073">
        <ele>1263</ele>
        <time>2000-01-01T01:57:51.000Z</time>
      </trkpt>
      <trkpt lat="46.32444" lon="6.54041">
        <ele>1269</ele>
        <time>2000-01-01T01:58:01.000Z</time>
      </trkpt>
      <trkpt lat="46.32416" lon="6.54008">
        <ele>1285</ele>
        <time>2000-01-01T01:58:11.000Z</time>
      </trkpt>
      <trkpt lat="46.32393" lon="6.53978">
        <ele>1292</ele>
        <time>2000-01-01T01:58:21.000Z</time>
      </trkpt>
      <trkpt lat="46.32352" lon="6.53923">
        <ele>1312</ele>
        <time>2000-01-01T01:58:31.000Z</time>
      </trkpt>
      <trkpt lat="46.32319" lon="6.53904">
        <ele>1335</ele>
        <time>2000-01-01T01:58:41.000Z</time>
      </trkpt>
      <trkpt lat="46.32285" lon="6.53886">
        <ele>1335</ele>
        <time>2000-01-01T01:58:51.000Z</time>
      </trkpt>
      <trkpt lat="46.32252" lon="6.53868">
        <ele>1335</ele>
        <time>2000-01-01T01:59:01.000Z</time>
      </trkpt>
      <trkpt lat="46.3221" lon="6.53845">
        <ele>1336</ele>
        <time>2000-01-01T01:59:11.000Z</time>
      </trkpt>
      <trkpt lat="46.3218" lon="6.53819">
        <ele>1337</ele>
        <time>2000-01-01T01:59:21.000Z</time>
      </trkpt>
      <trkpt lat="46.32151" lon="6.53792">
        <ele>1338</ele>
        <time>2000-01-01T01:59:31.000Z</time>
      </trkpt>
      <trkpt lat="46.32097" lon="6.53742">
        <ele>1345</ele>
        <time>2000-01-01T01:59:41.000Z</time>
      </trkpt>
      <trkpt lat="46.32064" lon="6.53723">
        <ele>1358</ele>
        <time>2000-01-01T01:59:51.000Z</time>
      </trkpt>
      <trkpt lat="46.32031" lon="6.53704">
        <ele>1365</ele>
        <time>2000-01-01T02:00:01.000Z</time>
      </trkpt>
      <trkpt lat="46.31998" lon="6.53685">
        <ele>1368</ele>
        <time>2000-01-01T02:00:11.000Z</time>
      </trkpt>
      <trkpt lat="46.31955" lon="6.53661">
        <ele>1367</ele>
        <time>2000-01-01T02:00:21.000Z</time>
      </trkpt>
      <trkpt lat="46.31925" lon="6.53622">
        <ele>1367</ele>
        <time>2000-01-01T02:00:31.000Z</time>
      </trkpt>
      <trkpt lat="46.31895" lon="6.53583">
        <ele>1367</ele>
        <time>2000-01-01T02:00:41.000Z</time>
      </trkpt>
      <trkpt lat="46.31866" lon="6.53544">
        <ele>1363</ele>
        <time>2000-01-01T02:00:51.000Z</time>
      </trkpt>
      <trkpt lat="46.31836" lon="6.53505">
        <ele>1363</ele>
        <time>2000-01-01T02:01:01.000Z</time>
      </trkpt>
      <trkpt lat="46.31806" lon="6.53466">
        <ele>1363</ele>
        <time>2000-01-01T02:01:11.000Z</time>
      </trkpt>
      <trkpt lat="46.31776" lon="6.53428">
        <ele>1387</ele>
        <time>2000-01-01T02:01:21.000Z</time>
      </trkpt>
      <trkpt lat="46.31741" lon="6.53382">
        <ele>1394</ele>
        <time>2000-01-01T02:01:31.000Z</time>
      </trkpt>
      <trkpt lat="46.31726" lon="6.53334">
        <ele>1395</ele>
        <time>2000-01-01T02:01:41.000Z</time>
      </trkpt>
      <trkpt lat="46.31712" lon="6.53286">
        <ele>1402</ele>
        <time>2000-01-01T02:01:51.000Z</time>
      </trkpt>
      <trkpt lat="46.31697" lon="6.53238">
        <ele>1396</ele>
        <time>2000-01-01T02:02:01.000Z</time>
      </trkpt>
      <trkpt lat="46.31673" lon="6.53163">
        <ele>1390</ele>
        <time>2000-01-01T02:02:11.000Z</time>
      </trkpt>
      <trkpt lat="46.31645" lon="6.53129">
        <ele>1388</ele>
        <time>2000-01-01T02:02:21.000Z</time>
      </trkpt>
      <trkpt lat="46.31616" lon="6.53094">
        <ele>1382</ele>
        <time>2000-01-01T02:02:31.000Z</time>
      </trkpt>
      <trkpt lat="46.31588" lon="6.5306">
        <ele>1373</ele>
        <time>2000-01-01T02:02:41.000Z</time>
      </trkpt>
      <trkpt lat="46.31532" lon="6.52993">
        <ele>1347</ele>
        <time>2000-01-01T02:02:51.000Z</time>
      </trkpt>
      <trkpt lat="46.31513" lon="6.52952">
        <ele>1341</ele>
        <time>2000-01-01T02:03:01.000Z</time>
      </trkpt>
      <trkpt lat="46.31493" lon="6.5291">
        <ele>1336</ele>
        <time>2000-01-01T02:03:11.000Z</time>
      </trkpt>
      <trkpt lat="46.31455" lon="6.5283">
        <ele>1336</ele>
        <time>2000-01-01T02:03:21.000Z</time>
      </trkpt>
      <trkpt lat="46.31424" lon="6.52791">
        <ele>1337</ele>
        <time>2000-01-01T02:03:31.000Z</time>
      </trkpt>
      <trkpt lat="46.31392" lon="6.52753">
        <ele>1338</ele>
        <time>2000-01-01T02:03:41.000Z</time>
      </trkpt>
      <trkpt lat="46.3136" lon="6.52714">
        <ele>1340</ele>
        <time>2000-01-01T02:03:51.000Z</time>
      </trkpt>
      <trkpt lat="46.31328" lon="6.52675">
        <ele>1342</ele>
        <time>2000-01-01T02:04:01.000Z</time>
      </trkpt>
      <trkpt lat="46.31297" lon="6.52636">
        <ele>1343</ele>
        <time>2000-01-01T02:04:11.000Z</time>
      </trkpt>
      <trkpt lat="46.31265" lon="6.52597">
        <ele>1341</ele>
        <time>2000-01-01T02:04:21.000Z</time>
      </trkpt>
      <trkpt lat="46.31233" lon="6.52558">
        <ele>1340</ele>
        <time>2000-01-01T02:04:31.000Z</time>
      </trkpt>
      <trkpt lat="46.31201" lon="6.52519">
        <ele>1336</ele>
        <time>2000-01-01T02:04:41.000Z</time>
      </trkpt>
      <trkpt lat="46.31157" lon="6.52466">
        <ele>1326</ele>
        <time>2000-01-01T02:04:51.000Z</time>
      </trkpt>
      <trkpt lat="46.31153" lon="6.5242">
        <ele>1322</ele>
        <time>2000-01-01T02:05:01.000Z</time>
      </trkpt>
      <trkpt lat="46.31149" lon="6.52375">
        <ele>1320</ele>
        <time>2000-01-01T02:05:11.000Z</time>
      </trkpt>
      <trkpt lat="46.31144" lon="6.52324">
        <ele>1318</ele>
        <time>2000-01-01T02:05:21.000Z</time>
      </trkpt>
      <trkpt lat="46.31112" lon="6.52298">
        <ele>1303</ele>
        <time>2000-01-01T02:05:31.000Z</time>
      </trkpt>
      <trkpt lat="46.31081" lon="6.52271">
        <ele>1295</ele>
        <time>2000-01-01T02:05:41.000Z</time>
      </trkpt>
      <trkpt lat="46.31049" lon="6.52245">
        <ele>1287</ele>
        <time>2000-01-01T02:05:51.000Z</time>
      </trkpt>
      <trkpt lat="46.30997" lon="6.52202">
        <ele>1287</ele>
        <time>2000-01-01T02:06:01.000Z</time>
      </trkpt>
      <trkpt lat="46.30965" lon="6.52164">
        <ele>1283</ele>
        <time>2000-01-01T02:06:11.000Z</time>
      </trkpt>
      <trkpt lat="46.30933" lon="6.52127">
        <ele>1283</ele>
        <time>2000-01-01T02:06:21.000Z</time>
      </trkpt>
      <trkpt lat="46.309" lon="6.5209">
        <ele>1282</ele>
        <time>2000-01-01T02:06:31.000Z</time>
      </trkpt>
      <trkpt lat="46.30868" lon="6.52052">
        <ele>1282</ele>
        <time>2000-01-01T02:06:41.000Z</time>
      </trkpt>
      <trkpt lat="46.30835" lon="6.52015">
        <ele>1292</ele>
        <time>2000-01-01T02:06:51.000Z</time>
      </trkpt>
      <trkpt lat="46.30803" lon="6.51978">
        <ele>1292</ele>
        <time>2000-01-01T02:07:01.000Z</time>
      </trkpt>
      <trkpt lat="46.3077" lon="6.51941">
        <ele>1293</ele>
        <time>2000-01-01T02:07:11.000Z</time>
      </trkpt>
      <trkpt lat="46.30738" lon="6.51903">
        <ele>1297</ele>
        <time>2000-01-01T02:07:21.000Z</time>
      </trkpt>
      <trkpt lat="46.30702" lon="6.51863">
        <ele>1300</ele>
        <time>2000-01-01T02:07:31.000Z</time>
      </trkpt>
      <trkpt lat="46.30678" lon="6.51822">
        <ele>1304</ele>
        <time>2000-01-01T02:07:41.000Z</time>
      </trkpt>
      <trkpt lat="46.30654" lon="6.51782">
        <ele>1309</ele>
        <time>2000-01-01T02:07:51.000Z</time>
      </trkpt>
      <trkpt lat="46.3063" lon="6.51742">
        <ele>1309</ele>
        <time>2000-01-01T02:08:01.000Z</time>
      </trkpt>
      <trkpt lat="46.30587" lon="6.51669">
        <ele>1304</ele>
        <time>2000-01-01T02:08:11.000Z</time>
      </trkpt>
      <trkpt lat="46.3056" lon="6.51631">
        <ele>1299</ele>
        <time>2000-01-01T02:08:21.000Z</time>
      </trkpt>
      <trkpt lat="46.30534" lon="6.51592">
        <ele>1293</ele>
        <time>2000-01-01T02:08:31.000Z</time>
      </trkpt>
      <trkpt lat="46.30507" lon="6.51553">
        <ele>1290</ele>
        <time>2000-01-01T02:08:41.000Z</time>
      </trkpt>
      <trkpt lat="46.3048" lon="6.51514">
        <ele>1278</ele>
        <time>2000-01-01T02:08:51.000Z</time>
      </trkpt>
      <trkpt lat="46.30446" lon="6.51463">
        <ele>1266</ele>
        <time>2000-01-01T02:09:01.000Z</time>
      </trkpt>
      <trkpt lat="46.3044" lon="6.51426">
        <ele>1257</ele>
        <time>2000-01-01T02:09:11.000Z</time>
      </trkpt>
      <trkpt lat="46.30431" lon="6.51376">
        <ele>1257</ele>
        <time>2000-01-01T02:09:21.000Z</time>
      </trkpt>
      <trkpt lat="46.30392" lon="6.51371">
        <ele>1257</ele>
        <time>2000-01-01T02:09:31.000Z</time>
      </trkpt>
      <trkpt lat="46.30353" lon="6.51366">
        <ele>1256</ele>
        <time>2000-01-01T02:09:41.000Z</time>
      </trkpt>
      <trkpt lat="46.30314" lon="6.51361">
        <ele>1251</ele>
        <time>2000-01-01T02:09:51.000Z</time>
      </trkpt>
      <trkpt lat="46.30275" lon="6.51357">
        <ele>1244</ele>
        <time>2000-01-01T02:10:01.000Z</time>
      </trkpt>
      <trkpt lat="46.30236" lon="6.51352">
        <ele>1223</ele>
        <time>2000-01-01T02:10:11.000Z</time>
      </trkpt>
      <trkpt lat="46.30182" lon="6.51345">
        <ele>1217</ele>
        <time>2000-01-01T02:10:21.000Z</time>
      </trkpt>
      <trkpt lat="46.30191" lon="6.51383">
        <ele>1205</ele>
        <time>2000-01-01T02:10:31.000Z</time>
      </trkpt>
      <trkpt lat="46.30204" lon="6.51436">
        <ele>1194</ele>
        <time>2000-01-01T02:10:41.000Z</time>
      </trkpt>
      <trkpt lat="46.30171" lon="6.51416">
        <ele>1191</ele>
        <time>2000-01-01T02:10:51.000Z</time>
      </trkpt>
      <trkpt lat="46.30137" lon="6.51397">
        <ele>1190</ele>
        <time>2000-01-01T02:11:01.000Z</time>
      </trkpt>
      <trkpt lat="46.30103" lon="6.51378">
        <ele>1190</ele>
        <time>2000-01-01T02:11:11.000Z</time>
      </trkpt>
      <trkpt lat="46.3005" lon="6.51348">
        <ele>1160</ele>
        <time>2000-01-01T02:11:21.000Z</time>
      </trkpt>
      <trkpt lat="46.30019" lon="6.51371">
        <ele>1152</ele>
        <time>2000-01-01T02:11:31.000Z</time>
      </trkpt>
      <trkpt lat="46.29988" lon="6.51394">
        <ele>1145</ele>
        <time>2000-01-01T02:11:41.000Z</time>
      </trkpt>
      <trkpt lat="46.29957" lon="6.51418">
        <ele>1145</ele>
        <time>2000-01-01T02:11:51.000Z</time>
      </trkpt>
      <trkpt lat="46.29924" lon="6.51442">
        <ele>1143</ele>
        <time>2000-01-01T02:12:01.000Z</time>
      </trkpt>
      <trkpt lat="46.29896" lon="6.51406">
        <ele>1141</ele>
        <time>2000-01-01T02:12:11.000Z</time>
      </trkpt>
      <trkpt lat="46.29867" lon="6.5137">
        <ele>1137</ele>
        <time>2000-01-01T02:12:21.000Z</time>
      </trkpt>
      <trkpt lat="46.29839" lon="6.51335">
        <ele>1133</ele>
        <time>2000-01-01T02:12:31.000Z</time>
      </trkpt>
      <trkpt lat="46.29811" lon="6.51299">
        <ele>1133</ele>
        <time>2000-01-01T02:12:41.000Z</time>
      </trkpt>
      <trkpt lat="46.29776" lon="6.51255">
        <ele>1131</ele>
        <time>2000-01-01T02:12:51.000Z</time>
      </trkpt>
      <trkpt lat="46.29743" lon="6.51229">
        <ele>1133</ele>
        <time>2000-01-01T02:13:01.000Z</time>
      </trkpt>
      <trkpt lat="46.2971" lon="6.51202">
        <ele>1131</ele>
        <time>2000-01-01T02:13:11.000Z</time>
      </trkpt>
      <trkpt lat="46.29677" lon="6.51176">
        <ele>1129</ele>
        <time>2000-01-01T02:13:21.000Z</time>
      </trkpt>
      <trkpt lat="46.29644" lon="6.51149">
        <ele>1129</ele>
        <time>2000-01-01T02:13:31.000Z</time>
      </trkpt>
      <trkpt lat="46.29599" lon="6.51114">
        <ele>1129</ele>
        <time>2000-01-01T02:13:41.000Z</time>
      </trkpt>
      <trkpt lat="46.2957" lon="6.51088">
        <ele>1130</ele>
        <time>2000-01-01T02:13:51.000Z</time>
      </trkpt>
      <trkpt lat="46.29541" lon="6.51061">
        <ele>1128</ele>
        <time>2000-01-01T02:14:01.000Z</time>
      </trkpt>
      <trkpt lat="46.2949" lon="6.51015">
        <ele>1127</ele>
        <time>2000-01-01T02:14:11.000Z</time>
      </trkpt>
      <trkpt lat="46.29468" lon="6.50982">
        <ele>1126</ele>
        <time>2000-01-01T02:14:21.000Z</time>
      </trkpt>
      <trkpt lat="46.29447" lon="6.50948">
        <ele>1123</ele>
        <time>2000-01-01T02:14:31.000Z</time>
      </trkpt>
      <trkpt lat="46.29423" lon="6.50912">
        <ele>1123</ele>
        <time>2000-01-01T02:14:41.000Z</time>
      </trkpt>
      <trkpt lat="46.29411" lon="6.50854">
        <ele>1124</ele>
        <time>2000-01-01T02:14:51.000Z</time>
      </trkpt>
      <trkpt lat="46.29379" lon="6.50845">
        <ele>1125</ele>
        <time>2000-01-01T02:15:01.000Z</time>
      </trkpt>
      <trkpt lat="46.29346" lon="6.50837">
        <ele>1127</ele>
        <time>2000-01-01T02:15:11.000Z</time>
      </trkpt>
      <trkpt lat="46.29298" lon="6.50824">
        <ele>1127</ele>
        <time>2000-01-01T02:15:21.000Z</time>
      </trkpt>
      <trkpt lat="46.29279" lon="6.50782">
        <ele>1135</ele>
        <time>2000-01-01T02:15:31.000Z</time>
      </trkpt>
      <trkpt lat="46.2926" lon="6.5074">
        <ele>1139</ele>
        <time>2000-01-01T02:15:41.000Z</time>
      </trkpt>
      <trkpt lat="46.29223" lon="6.50659">
        <ele>1139</ele>
        <time>2000-01-01T02:15:51.000Z</time>
      </trkpt>
      <trkpt lat="46.29187" lon="6.50631">
        <ele>1140</ele>
        <time>2000-01-01T02:16:01.000Z</time>
      </trkpt>
      <trkpt lat="46.29151" lon="6.50603">
        <ele>1142</ele>
        <time>2000-01-01T02:16:11.000Z</time>
      </trkpt>
      <trkpt lat="46.29115" lon="6.50575">
        <ele>1144</ele>
        <time>2000-01-01T02:16:21.000Z</time>
      </trkpt>
      <trkpt lat="46.29078" lon="6.50548">
        <ele>1146</ele>
        <time>2000-01-01T02:16:31.000Z</time>
      </trkpt>
      <trkpt lat="46.29042" lon="6.5052">
        <ele>1153</ele>
        <time>2000-01-01T02:16:41.000Z</time>
      </trkpt>
      <trkpt lat="46.29006" lon="6.50492">
        <ele>1162</ele>
        <time>2000-01-01T02:16:51.000Z</time>
      </trkpt>
      <trkpt lat="46.2897" lon="6.50464">
        <ele>1168</ele>
        <time>2000-01-01T02:17:01.000Z</time>
      </trkpt>
      <trkpt lat="46.28925" lon="6.50429">
        <ele>1169</ele>
        <time>2000-01-01T02:17:11.000Z</time>
      </trkpt>
      <trkpt lat="46.28893" lon="6.5042">
        <ele>1168</ele>
        <time>2000-01-01T02:17:21.000Z</time>
      </trkpt>
      <trkpt lat="46.2886" lon="6.50412">
        <ele>1167</ele>
        <time>2000-01-01T02:17:31.000Z</time>
      </trkpt>
      <trkpt lat="46.28815" lon="6.50399">
        <ele>1171</ele>
        <time>2000-01-01T02:17:41.000Z</time>
      </trkpt>
      <trkpt lat="46.28855" lon="6.50369">
        <ele>1176</ele>
        <time>2000-01-01T02:17:51.000Z</time>
      </trkpt>
      <trkpt lat="46.28863" lon="6.50325">
        <ele>1179</ele>
        <time>2000-01-01T02:18:01.000Z</time>
      </trkpt>
      <trkpt lat="46.2887" lon="6.50282">
        <ele>1189</ele>
        <time>2000-01-01T02:18:11.000Z</time>
      </trkpt>
      <trkpt lat="46.28877" lon="6.50238">
        <ele>1218</ele>
        <time>2000-01-01T02:18:21.000Z</time>
      </trkpt>
      <trkpt lat="46.28898" lon="6.50204">
        <ele>1231</ele>
        <time>2000-01-01T02:18:31.000Z</time>
      </trkpt>
      <trkpt lat="46.28919" lon="6.5017">
        <ele>1231</ele>
        <time>2000-01-01T02:18:41.000Z</time>
      </trkpt>
      <trkpt lat="46.28941" lon="6.50133">
        <ele>1231</ele>
        <time>2000-01-01T02:18:51.000Z</time>
      </trkpt>
      <trkpt lat="46.28977" lon="6.50139">
        <ele>1235</ele>
        <time>2000-01-01T02:19:01.000Z</time>
      </trkpt>
      <trkpt lat="46.29013" lon="6.50146">
        <ele>1236</ele>
        <time>2000-01-01T02:19:11.000Z</time>
      </trkpt>
      <trkpt lat="46.29049" lon="6.50152">
        <ele>1241</ele>
        <time>2000-01-01T02:19:21.000Z</time>
      </trkpt>
      <trkpt lat="46.29101" lon="6.50161">
        <ele>1254</ele>
        <time>2000-01-01T02:19:31.000Z</time>
      </trkpt>
      <trkpt lat="46.29085" lon="6.50126">
        <ele>1263</ele>
        <time>2000-01-01T02:19:41.000Z</time>
      </trkpt>
      <trkpt lat="46.29057" lon="6.50067">
        <ele>1272</ele>
        <time>2000-01-01T02:19:51.000Z</time>
      </trkpt>
      <trkpt lat="46.29046" lon="6.50033">
        <ele>1281</ele>
        <time>2000-01-01T02:20:01.000Z</time>
      </trkpt>
      <trkpt lat="46.29033" lon="6.49994">
        <ele>1288</ele>
        <time>2000-01-01T02:20:11.000Z</time>
      </trkpt>
      <trkpt lat="46.29027" lon="6.49953">
        <ele>1297</ele>
        <time>2000-01-01T02:20:21.000Z</time>
      </trkpt>
      <trkpt lat="46.29017" lon="6.49888">
        <ele>1303</ele>
        <time>2000-01-01T02:20:31.000Z</time>
      </trkpt>
      <trkpt lat="46.28999" lon="6.49852">
        <ele>1309</ele>
        <time>2000-01-01T02:20:41.000Z</time>
      </trkpt>
      <trkpt lat="46.28963" lon="6.49781">
        <ele>1316</ele>
        <time>2000-01-01T02:20:51.000Z</time>
      </trkpt>
      <trkpt lat="46.28967" lon="6.49738">
        <ele>1318</ele>
        <time>2000-01-01T02:21:01.000Z</time>
      </trkpt>
      <trkpt lat="46.28972" lon="6.49661">
        <ele>1320</ele>
        <time>2000-01-01T02:21:11.000Z</time>
      </trkpt>
      <trkpt lat="46.2895" lon="6.49625">
        <ele>1327</ele>
        <time>2000-01-01T02:21:21.000Z</time>
      </trkpt>
      <trkpt lat="46.28927" lon="6.49589">
        <ele>1333</ele>
        <time>2000-01-01T02:21:31.000Z</time>
      </trkpt>
      <trkpt lat="46.28891" lon="6.49532">
        <ele>1339</ele>
        <time>2000-01-01T02:21:41.000Z</time>
      </trkpt>
      <trkpt lat="46.28855" lon="6.495">
        <ele>1347</ele>
        <time>2000-01-01T02:21:51.000Z</time>
      </trkpt>
      <trkpt lat="46.28834" lon="6.49462">
        <ele>1347</ele>
        <time>2000-01-01T02:22:01.000Z</time>
      </trkpt>
      <trkpt lat="46.28812" lon="6.49423">
        <ele>1348</ele>
        <time>2000-01-01T02:22:11.000Z</time>
      </trkpt>
      <trkpt lat="46.28775" lon="6.49356">
        <ele>1354</ele>
        <time>2000-01-01T02:22:21.000Z</time>
      </trkpt>
      <trkpt lat="46.28741" lon="6.49325">
        <ele>1372</ele>
        <time>2000-01-01T02:22:31.000Z</time>
      </trkpt>
      <trkpt lat="46.28707" lon="6.49294">
        <ele>1373</ele>
        <time>2000-01-01T02:22:41.000Z</time>
      </trkpt>
      <trkpt lat="46.28673" lon="6.49263">
        <ele>1372</ele>
        <time>2000-01-01T02:22:51.000Z</time>
      </trkpt>
      <trkpt lat="46.28639" lon="6.49233">
        <ele>1372</ele>
        <time>2000-01-01T02:23:01.000Z</time>
      </trkpt>
      <trkpt lat="46.28605" lon="6.49202">
        <ele>1370</ele>
        <time>2000-01-01T02:23:11.000Z</time>
      </trkpt>
      <trkpt lat="46.28571" lon="6.49171">
        <ele>1368</ele>
        <time>2000-01-01T02:23:21.000Z</time>
      </trkpt>
      <trkpt lat="46.28527" lon="6.49131">
        <ele>1365</ele>
        <time>2000-01-01T02:23:31.000Z</time>
      </trkpt>
      <trkpt lat="46.28505" lon="6.4909">
        <ele>1365</ele>
        <time>2000-01-01T02:23:41.000Z</time>
      </trkpt>
      <trkpt lat="46.28483" lon="6.49049">
        <ele>1363</ele>
        <time>2000-01-01T02:23:51.000Z</time>
      </trkpt>
      <trkpt lat="46.28461" lon="6.49008">
        <ele>1361</ele>
        <time>2000-01-01T02:24:01.000Z</time>
      </trkpt>
      <trkpt lat="46.28431" lon="6.48953">
        <ele>1348</ele>
        <time>2000-01-01T02:24:11.000Z</time>
      </trkpt>
      <trkpt lat="46.28399" lon="6.48966">
        <ele>1347</ele>
        <time>2000-01-01T02:24:21.000Z</time>
      </trkpt>
      <trkpt lat="46.28367" lon="6.48979">
        <ele>1350</ele>
        <time>2000-01-01T02:24:31.000Z</time>
      </trkpt>
      <trkpt lat="46.28318" lon="6.48998">
        <ele>1353</ele>
        <time>2000-01-01T02:24:41.000Z</time>
      </trkpt>
      <trkpt lat="46.28306" lon="6.49046">
        <ele>1355</ele>
        <time>2000-01-01T02:24:51.000Z</time>
      </trkpt>
      <trkpt lat="46.28294" lon="6.49094">
        <ele>1369</ele>
        <time>2000-01-01T02:25:01.000Z</time>
      </trkpt>
      <trkpt lat="46.28282" lon="6.49141">
        <ele>1370</ele>
        <time>2000-01-01T02:25:11.000Z</time>
      </trkpt>
      <trkpt lat="46.28269" lon="6.49193">
        <ele>1373</ele>
        <time>2000-01-01T02:25:21.000Z</time>
      </trkpt>
      <trkpt lat="46.28247" lon="6.49155">
        <ele>1376</ele>
        <time>2000-01-01T02:25:31.000Z</time>
      </trkpt>
      <trkpt lat="46.28224" lon="6.49117">
        <ele>1384</ele>
        <time>2000-01-01T02:25:41.000Z</time>
      </trkpt>
      <trkpt lat="46.28182" lon="6.49045">
        <ele>1397</ele>
        <time>2000-01-01T02:25:51.000Z</time>
      </trkpt>
      <trkpt lat="46.28168" lon="6.49088">
        <ele>1410</ele>
        <time>2000-01-01T02:26:01.000Z</time>
      </trkpt>
      <trkpt lat="46.28154" lon="6.49131">
        <ele>1445</ele>
        <time>2000-01-01T02:26:11.000Z</time>
      </trkpt>
      <trkpt lat="46.28134" lon="6.49191">
        <ele>1461</ele>
        <time>2000-01-01T02:26:21.000Z</time>
      </trkpt>
      <trkpt lat="46.28107" lon="6.49156">
        <ele>1461</ele>
        <time>2000-01-01T02:26:31.000Z</time>
      </trkpt>
      <trkpt lat="46.28079" lon="6.49121">
        <ele>1464</ele>
        <time>2000-01-01T02:26:41.000Z</time>
      </trkpt>
      <trkpt lat="46.28051" lon="6.49086">
        <ele>1464</ele>
        <time>2000-01-01T02:26:51.000Z</time>
      </trkpt>
      <trkpt lat="46.28002" lon="6.49024">
        <ele>1460</ele>
        <time>2000-01-01T02:27:01.000Z</time>
      </trkpt>
      <trkpt lat="46.28" lon="6.49066">
        <ele>1471</ele>
        <time>2000-01-01T02:27:11.000Z</time>
      </trkpt>
      <trkpt lat="46.27995" lon="6.49135">
        <ele>1475</ele>
        <time>2000-01-01T02:27:21.000Z</time>
      </trkpt>
      <trkpt lat="46.27961" lon="6.49113">
        <ele>1479</ele>
        <time>2000-01-01T02:27:31.000Z</time>
      </trkpt>
      <trkpt lat="46.27926" lon="6.49091">
        <ele>1488</ele>
        <time>2000-01-01T02:27:41.000Z</time>
      </trkpt>
      <trkpt lat="46.27891" lon="6.49069">
        <ele>1493</ele>
        <time>2000-01-01T02:27:51.000Z</time>
      </trkpt>
      <trkpt lat="46.27857" lon="6.49047">
        <ele>1497</ele>
        <time>2000-01-01T02:28:01.000Z</time>
      </trkpt>
      <trkpt lat="46.27811" lon="6.49017">
        <ele>1504</ele>
        <time>2000-01-01T02:28:11.000Z</time>
      </trkpt>
      <trkpt lat="46.27796" lon="6.49047">
        <ele>1507</ele>
        <time>2000-01-01T02:28:21.000Z</time>
      </trkpt>
      <trkpt lat="46.27777" lon="6.49084">
        <ele>1507</ele>
        <time>2000-01-01T02:28:31.000Z</time>
      </trkpt>
      <trkpt lat="46.27739" lon="6.4906">
        <ele>1507</ele>
        <time>2000-01-01T02:28:41.000Z</time>
      </trkpt>
      <trkpt lat="46.27701" lon="6.49037">
        <ele>1505</ele>
        <time>2000-01-01T02:28:51.000Z</time>
      </trkpt>
      <trkpt lat="46.27664" lon="6.49013">
        <ele>1507</ele>
        <time>2000-01-01T02:29:01.000Z</time>
      </trkpt>
      <trkpt lat="46.27626" lon="6.48989">
        <ele>1510</ele>
        <time>2000-01-01T02:29:11.000Z</time>
      </trkpt>
      <trkpt lat="46.27588" lon="6.48966">
        <ele>1507</ele>
        <time>2000-01-01T02:29:21.000Z</time>
      </trkpt>
      <trkpt lat="46.2755" lon="6.48942">
        <ele>1514</ele>
        <time>2000-01-01T02:29:31.000Z</time>
      </trkpt>
      <trkpt lat="46.27512" lon="6.48919">
        <ele>1521</ele>
        <time>2000-01-01T02:29:41.000Z</time>
      </trkpt>
      <trkpt lat="46.27451" lon="6.4888">
        <ele>1526</ele>
        <time>2000-01-01T02:29:51.000Z</time>
      </trkpt>
      <trkpt lat="46.27421" lon="6.48861">
        <ele>1523</ele>
        <time>2000-01-01T02:30:01.000Z</time>
      </trkpt>
      <trkpt lat="46.27392" lon="6.48843">
        <ele>1521</ele>
        <time>2000-01-01T02:30:11.000Z</time>
      </trkpt>
      <trkpt lat="46.27354" lon="6.4882">
        <ele>1515</ele>
        <time>2000-01-01T02:30:21.000Z</time>
      </trkpt>
      <trkpt lat="46.27394" lon="6.48792">
        <ele>1507</ele>
        <time>2000-01-01T02:30:31.000Z</time>
      </trkpt>
      <trkpt lat="46.2738" lon="6.48745">
        <ele>1491</ele>
        <time>2000-01-01T02:30:41.000Z</time>
      </trkpt>
      <trkpt lat="46.27411" lon="6.4873">
        <ele>1476</ele>
        <time>2000-01-01T02:30:51.000Z</time>
      </trkpt>
      <trkpt lat="46.27406" lon="6.48683">
        <ele>1457</ele>
        <time>2000-01-01T02:31:01.000Z</time>
      </trkpt>
      <trkpt lat="46.27434" lon="6.48648">
        <ele>1447</ele>
        <time>2000-01-01T02:31:11.000Z</time>
      </trkpt>
      <trkpt lat="46.27441" lon="6.48601">
        <ele>1440</ele>
        <time>2000-01-01T02:31:21.000Z</time>
      </trkpt>
      <trkpt lat="46.27447" lon="6.48555">
        <ele>1438</ele>
        <time>2000-01-01T02:31:31.000Z</time>
      </trkpt>
      <trkpt lat="46.27457" lon="6.48487">
        <ele>1438</ele>
        <time>2000-01-01T02:31:41.000Z</time>
      </trkpt>
      <trkpt lat="46.27445" lon="6.48432">
        <ele>1438</ele>
        <time>2000-01-01T02:31:51.000Z</time>
      </trkpt>
      <trkpt lat="46.27433" lon="6.48376">
        <ele>1439</ele>
        <time>2000-01-01T02:32:01.000Z</time>
      </trkpt>
      <trkpt lat="46.27421" lon="6.48321">
        <ele>1441</ele>
        <time>2000-01-01T02:32:11.000Z</time>
      </trkpt>
      <trkpt lat="46.27409" lon="6.48265">
        <ele>1443</ele>
        <time>2000-01-01T02:32:21.000Z</time>
      </trkpt>
      <trkpt lat="46.27397" lon="6.4821">
        <ele>1447</ele>
        <time>2000-01-01T02:32:31.000Z</time>
      </trkpt>
      <trkpt lat="46.27385" lon="6.48155">
        <ele>1453</ele>
        <time>2000-01-01T02:32:41.000Z</time>
      </trkpt>
      <trkpt lat="46.27371" lon="6.48086">
        <ele>1453</ele>
        <time>2000-01-01T02:32:51.000Z</time>
      </trkpt>
      <trkpt lat="46.2735" lon="6.48058">
        <ele>1447</ele>
        <time>2000-01-01T02:33:01.000Z</time>
      </trkpt>
      <trkpt lat="46.27317" lon="6.48015">
        <ele>1448</ele>
        <time>2000-01-01T02:33:11.000Z</time>
      </trkpt>
      <trkpt lat="46.27311" lon="6.47969">
        <ele>1445</ele>
        <time>2000-01-01T02:33:21.000Z</time>
      </trkpt>
      <trkpt lat="46.27304" lon="6.47923">
        <ele>1442</ele>
        <time>2000-01-01T02:33:31.000Z</time>
      </trkpt>
      <trkpt lat="46.27295" lon="6.47863">
        <ele>1441</ele>
        <time>2000-01-01T02:33:41.000Z</time>
      </trkpt>
      <trkpt lat="46.27318" lon="6.47852">
        <ele>1440</ele>
        <time>2000-01-01T02:33:51.000Z</time>
      </trkpt>
      <trkpt lat="46.27341" lon="6.47841">
        <ele>1445</ele>
        <time>2000-01-01T02:34:01.000Z</time>
      </trkpt>
      <trkpt lat="46.27353" lon="6.47804">
        <ele>1442</ele>
        <time>2000-01-01T02:34:11.000Z</time>
      </trkpt>
      <trkpt lat="46.27372" lon="6.47743">
        <ele>1440</ele>
        <time>2000-01-01T02:34:21.000Z</time>
      </trkpt>
      <trkpt lat="46.2735" lon="6.47723">
        <ele>1430</ele>
        <time>2000-01-01T02:34:31.000Z</time>
      </trkpt>
      <trkpt lat="46.27322" lon="6.47698">
        <ele>1424</ele>
        <time>2000-01-01T02:34:41.000Z</time>
      </trkpt>
      <trkpt lat="46.27343" lon="6.47674">
        <ele>1418</ele>
        <time>2000-01-01T02:34:51.000Z</time>
      </trkpt>
      <trkpt lat="46.27374" lon="6.4764">
        <ele>1397</ele>
        <time>2000-01-01T02:35:01.000Z</time>
      </trkpt>
      <trkpt lat="46.27346" lon="6.47625">
        <ele>1388</ele>
        <time>2000-01-01T02:35:11.000Z</time>
      </trkpt>
      <trkpt lat="46.27299" lon="6.47599">
        <ele>1382</ele>
        <time>2000-01-01T02:35:21.000Z</time>
      </trkpt>
      <trkpt lat="46.27326" lon="6.4758">
        <ele>1377</ele>
        <time>2000-01-01T02:35:31.000Z</time>
      </trkpt>
      <trkpt lat="46.27374" lon="6.47545">
        <ele>1355</ele>
        <time>2000-01-01T02:35:41.000Z</time>
      </trkpt>
      <trkpt lat="46.27336" lon="6.47533">
        <ele>1353</ele>
        <time>2000-01-01T02:35:51.000Z</time>
      </trkpt>
      <trkpt lat="46.27299" lon="6.47521">
        <ele>1352</ele>
        <time>2000-01-01T02:36:01.000Z</time>
      </trkpt>
      <trkpt lat="46.27262" lon="6.47509">
        <ele>1341</ele>
        <time>2000-01-01T02:36:11.000Z</time>
      </trkpt>
      <trkpt lat="46.27224" lon="6.47497">
        <ele>1330</ele>
        <time>2000-01-01T02:36:21.000Z</time>
      </trkpt>
      <trkpt lat="46.27163" lon="6.47477">
        <ele>1308</ele>
        <time>2000-01-01T02:36:31.000Z</time>
      </trkpt>
      <trkpt lat="46.27198" lon="6.47453">
        <ele>1307</ele>
        <time>2000-01-01T02:36:41.000Z</time>
      </trkpt>
      <trkpt lat="46.27233" lon="6.4743">
        <ele>1295</ele>
        <time>2000-01-01T02:36:51.000Z</time>
      </trkpt>
      <trkpt lat="46.27268" lon="6.47406">
        <ele>1292</ele>
        <time>2000-01-01T02:37:01.000Z</time>
      </trkpt>
      <trkpt lat="46.27302" lon="6.47382">
        <ele>1290</ele>
        <time>2000-01-01T02:37:11.000Z</time>
      </trkpt>
      <trkpt lat="46.27363" lon="6.47341">
        <ele>1280</ele>
        <time>2000-01-01T02:37:21.000Z</time>
      </trkpt>
      <trkpt lat="46.27373" lon="6.473">
        <ele>1272</ele>
        <time>2000-01-01T02:37:31.000Z</time>
      </trkpt>
      <trkpt lat="46.2739" lon="6.47226">
        <ele>1267</ele>
        <time>2000-01-01T02:37:41.000Z</time>
      </trkpt>
      <trkpt lat="46.27352" lon="6.47212">
        <ele>1263</ele>
        <time>2000-01-01T02:37:51.000Z</time>
      </trkpt>
      <trkpt lat="46.27315" lon="6.47199">
        <ele>1242</ele>
        <time>2000-01-01T02:38:01.000Z</time>
      </trkpt>
      <trkpt lat="46.27277" lon="6.47186">
        <ele>1235</ele>
        <time>2000-01-01T02:38:11.000Z</time>
      </trkpt>
      <trkpt lat="46.27239" lon="6.47173">
        <ele>1232</ele>
        <time>2000-01-01T02:38:21.000Z</time>
      </trkpt>
      <trkpt lat="46.27201" lon="6.4716">
        <ele>1227</ele>
        <time>2000-01-01T02:38:31.000Z</time>
      </trkpt>
      <trkpt lat="46.27163" lon="6.47146">
        <ele>1222</ele>
        <time>2000-01-01T02:38:41.000Z</time>
      </trkpt>
      <trkpt lat="46.27193" lon="6.47118">
        <ele>1209</ele>
        <time>2000-01-01T02:38:51.000Z</time>
      </trkpt>
      <trkpt lat="46.27223" lon="6.47089">
        <ele>1201</ele>
        <time>2000-01-01T02:39:01.000Z</time>
      </trkpt>
      <trkpt lat="46.27252" lon="6.47061">
        <ele>1196</ele>
        <time>2000-01-01T02:39:11.000Z</time>
      </trkpt>
      <trkpt lat="46.27291" lon="6.47024">
        <ele>1179</ele>
        <time>2000-01-01T02:39:21.000Z</time>
      </trkpt>
      <trkpt lat="46.27315" lon="6.47027">
        <ele>1178</ele>
        <time>2000-01-01T02:39:31.000Z</time>
      </trkpt>
      <trkpt lat="46.27343" lon="6.4703">
        <ele>1178</ele>
        <time>2000-01-01T02:39:41.000Z</time>
      </trkpt>
      <trkpt lat="46.27374" lon="6.46996">
        <ele>1178</ele>
        <time>2000-01-01T02:39:51.000Z</time>
      </trkpt>
      <trkpt lat="46.27406" lon="6.46962">
        <ele>1176</ele>
        <time>2000-01-01T02:40:01.000Z</time>
      </trkpt>
      <trkpt lat="46.27437" lon="6.46928">
        <ele>1145</ele>
        <time>2000-01-01T02:40:11.000Z</time>
      </trkpt>
      <trkpt lat="46.27469" lon="6.46894">
        <ele>1145</ele>
        <time>2000-01-01T02:40:21.000Z</time>
      </trkpt>
      <trkpt lat="46.275" lon="6.46859">
        <ele>1140</ele>
        <time>2000-01-01T02:40:31.000Z</time>
      </trkpt>
      <trkpt lat="46.27549" lon="6.46807">
        <ele>1135</ele>
        <time>2000-01-01T02:40:41.000Z</time>
      </trkpt>
      <trkpt lat="46.27553" lon="6.46747">
        <ele>1120</ele>
        <time>2000-01-01T02:40:51.000Z</time>
      </trkpt>
      <trkpt lat="46.27577" lon="6.4676">
        <ele>1123</ele>
        <time>2000-01-01T02:41:01.000Z</time>
      </trkpt>
      <trkpt lat="46.27607" lon="6.46775">
        <ele>1118</ele>
        <time>2000-01-01T02:41:11.000Z</time>
      </trkpt>
      <trkpt lat="46.27645" lon="6.4677">
        <ele>1113</ele>
        <time>2000-01-01T02:41:21.000Z</time>
      </trkpt>
      <trkpt lat="46.27683" lon="6.46766">
        <ele>1105</ele>
        <time>2000-01-01T02:41:31.000Z</time>
      </trkpt>
      <trkpt lat="46.27721" lon="6.46761">
        <ele>1106</ele>
        <time>2000-01-01T02:41:41.000Z</time>
      </trkpt>
      <trkpt lat="46.27759" lon="6.46756">
        <ele>1108</ele>
        <time>2000-01-01T02:41:51.000Z</time>
      </trkpt>
      <trkpt lat="46.27817" lon="6.46749">
        <ele>1110</ele>
        <time>2000-01-01T02:42:01.000Z</time>
      </trkpt>
      <trkpt lat="46.27843" lon="6.46766">
        <ele>1115</ele>
        <time>2000-01-01T02:42:11.000Z</time>
      </trkpt>
      <trkpt lat="46.27881" lon="6.4679">
        <ele>1132</ele>
        <time>2000-01-01T02:42:21.000Z</time>
      </trkpt>
      <trkpt lat="46.27902" lon="6.46817">
        <ele>1136</ele>
        <time>2000-01-01T02:42:31.000Z</time>
      </trkpt>
      <trkpt lat="46.27933" lon="6.46859">
        <ele>1136</ele>
        <time>2000-01-01T02:42:41.000Z</time>
      </trkpt>
      <trkpt lat="46.2792" lon="6.46897">
        <ele>1136</ele>
        <time>2000-01-01T02:42:51.000Z</time>
      </trkpt>
      <trkpt lat="46.27897" lon="6.46966">
        <ele>1142</ele>
        <time>2000-01-01T02:43:01.000Z</time>
      </trkpt>
      <trkpt lat="46.27915" lon="6.47014">
        <ele>1149</ele>
        <time>2000-01-01T02:43:11.000Z</time>
      </trkpt>
      <trkpt lat="46.27932" lon="6.47062">
        <ele>1158</ele>
        <time>2000-01-01T02:43:21.000Z</time>
      </trkpt>
      <trkpt lat="46.27949" lon="6.47111">
        <ele>1154</ele>
        <time>2000-01-01T02:43:31.000Z</time>
      </trkpt>
      <trkpt lat="46.27967" lon="6.47159">
        <ele>1154</ele>
        <time>2000-01-01T02:43:41.000Z</time>
      </trkpt>
      <trkpt lat="46.27988" lon="6.47217">
        <ele>1153</ele>
        <time>2000-01-01T02:43:51.000Z</time>
      </trkpt>
      <trkpt lat="46.2801" lon="6.47261">
        <ele>1156</ele>
        <time>2000-01-01T02:44:01.000Z</time>
      </trkpt>
      <trkpt lat="46.28033" lon="6.47305">
        <ele>1156</ele>
        <time>2000-01-01T02:44:11.000Z</time>
      </trkpt>
      <trkpt lat="46.28056" lon="6.47349">
        <ele>1157</ele>
        <time>2000-01-01T02:44:21.000Z</time>
      </trkpt>
      <trkpt lat="46.28079" lon="6.47393">
        <ele>1158</ele>
        <time>2000-01-01T02:44:31.000Z</time>
      </trkpt>
      <trkpt lat="46.28112" lon="6.47457">
        <ele>1157</ele>
        <time>2000-01-01T02:44:41.000Z</time>
      </trkpt>
      <trkpt lat="46.28111" lon="6.47503">
        <ele>1157</ele>
        <time>2000-01-01T02:44:51.000Z</time>
      </trkpt>
      <trkpt lat="46.28109" lon="6.47549">
        <ele>1158</ele>
        <time>2000-01-01T02:45:01.000Z</time>
      </trkpt>
      <trkpt lat="46.28108" lon="6.47603">
        <ele>1158</ele>
        <time>2000-01-01T02:45:11.000Z</time>
      </trkpt>
      <trkpt lat="46.28111" lon="6.47646">
        <ele>1167</ele>
        <time>2000-01-01T02:45:21.000Z</time>
      </trkpt>
      <trkpt lat="46.28117" lon="6.47723">
        <ele>1177</ele>
        <time>2000-01-01T02:45:31.000Z</time>
      </trkpt>
      <trkpt lat="46.28104" lon="6.47766">
        <ele>1178</ele>
        <time>2000-01-01T02:45:41.000Z</time>
      </trkpt>
      <trkpt lat="46.28091" lon="6.47808">
        <ele>1193</ele>
        <time>2000-01-01T02:45:51.000Z</time>
      </trkpt>
      <trkpt lat="46.28075" lon="6.47859">
        <ele>1195</ele>
        <time>2000-01-01T02:46:01.000Z</time>
      </trkpt>
      <trkpt lat="46.28102" lon="6.47888">
        <ele>1199</ele>
        <time>2000-01-01T02:46:11.000Z</time>
      </trkpt>
      <trkpt lat="46.2813" lon="6.47918">
        <ele>1187</ele>
        <time>2000-01-01T02:46:21.000Z</time>
      </trkpt>
      <trkpt lat="46.28177" lon="6.4797">
        <ele>1183</ele>
        <time>2000-01-01T02:46:31.000Z</time>
      </trkpt>
      <trkpt lat="46.28172" lon="6.48006">
        <ele>1187</ele>
        <time>2000-01-01T02:46:41.000Z</time>
      </trkpt>
      <trkpt lat="46.28164" lon="6.48052">
        <ele>1187</ele>
        <time>2000-01-01T02:46:51.000Z</time>
      </trkpt>
      <trkpt lat="46.28196" lon="6.48073">
        <ele>1187</ele>
        <time>2000-01-01T02:47:01.000Z</time>
      </trkpt>
      <trkpt lat="46.28227" lon="6.48094">
        <ele>1186</ele>
        <time>2000-01-01T02:47:11.000Z</time>
      </trkpt>
      <trkpt lat="46.28287" lon="6.48135">
        <ele>1186</ele>
        <time>2000-01-01T02:47:21.000Z</time>
      </trkpt>
      <trkpt lat="46.2829" lon="6.48189">
        <ele>1182</ele>
        <time>2000-01-01T02:47:31.000Z</time>
      </trkpt>
      <trkpt lat="46.28324" lon="6.482">
        <ele>1184</ele>
        <time>2000-01-01T02:47:41.000Z</time>
      </trkpt>
      <trkpt lat="46.28357" lon="6.48212">
        <ele>1180</ele>
        <time>2000-01-01T02:47:51.000Z</time>
      </trkpt>
      <trkpt lat="46.28418" lon="6.48232">
        <ele>1176</ele>
        <time>2000-01-01T02:48:01.000Z</time>
      </trkpt>
      <trkpt lat="46.28446" lon="6.48268">
        <ele>1180</ele>
        <time>2000-01-01T02:48:11.000Z</time>
      </trkpt>
      <trkpt lat="46.28475" lon="6.48303">
        <ele>1185</ele>
        <time>2000-01-01T02:48:21.000Z</time>
      </trkpt>
      <trkpt lat="46.28504" lon="6.48339">
        <ele>1190</ele>
        <time>2000-01-01T02:48:31.000Z</time>
      </trkpt>
      <trkpt lat="46.28533" lon="6.48375">
        <ele>1189</ele>
        <time>2000-01-01T02:48:41.000Z</time>
      </trkpt>
      <trkpt lat="46.28572" lon="6.48423">
        <ele>1189</ele>
        <time>2000-01-01T02:48:51.000Z</time>
      </trkpt>
      <trkpt lat="46.28606" lon="6.48443">
        <ele>1185</ele>
        <time>2000-01-01T02:49:01.000Z</time>
      </trkpt>
      <trkpt lat="46.2864" lon="6.48463">
        <ele>1185</ele>
        <time>2000-01-01T02:49:11.000Z</time>
      </trkpt>
      <trkpt lat="46.28674" lon="6.48483">
        <ele>1185</ele>
        <time>2000-01-01T02:49:21.000Z</time>
      </trkpt>
      <trkpt lat="46.28732" lon="6.48517">
        <ele>1185</ele>
        <time>2000-01-01T02:49:31.000Z</time>
      </trkpt>
      <trkpt lat="46.28766" lon="6.48538">
        <ele>1178</ele>
        <time>2000-01-01T02:49:41.000Z</time>
      </trkpt>
      <trkpt lat="46.28799" lon="6.48559">
        <ele>1178</ele>
        <time>2000-01-01T02:49:51.000Z</time>
      </trkpt>
      <trkpt lat="46.28832" lon="6.48579">
        <ele>1179</ele>
        <time>2000-01-01T02:50:01.000Z</time>
      </trkpt>
      <trkpt lat="46.28885" lon="6.48612">
        <ele>1177</ele>
        <time>2000-01-01T02:50:11.000Z</time>
      </trkpt>
      <trkpt lat="46.28909" lon="6.48595">
        <ele>1180</ele>
        <time>2000-01-01T02:50:21.000Z</time>
      </trkpt>
      <trkpt lat="46.28943" lon="6.48573">
        <ele>1183</ele>
        <time>2000-01-01T02:50:31.000Z</time>
      </trkpt>
      <trkpt lat="46.28968" lon="6.48605">
        <ele>1185</ele>
        <time>2000-01-01T02:50:41.000Z</time>
      </trkpt>
      <trkpt lat="46.28994" lon="6.48637">
        <ele>1194</ele>
        <time>2000-01-01T02:50:51.000Z</time>
      </trkpt>
      <trkpt lat="46.29038" lon="6.48691">
        <ele>1197</ele>
        <time>2000-01-01T02:51:01.000Z</time>
      </trkpt>
      <trkpt lat="46.29051" lon="6.48743">
        <ele>1200</ele>
        <time>2000-01-01T02:51:11.000Z</time>
      </trkpt>
      <trkpt lat="46.29065" lon="6.48796">
        <ele>1201</ele>
        <time>2000-01-01T02:51:21.000Z</time>
      </trkpt>
      <trkpt lat="46.29079" lon="6.48848">
        <ele>1201</ele>
        <time>2000-01-01T02:51:31.000Z</time>
      </trkpt>
      <trkpt lat="46.29093" lon="6.489">
        <ele>1205</ele>
        <time>2000-01-01T02:51:41.000Z</time>
      </trkpt>
      <trkpt lat="46.29121" lon="6.49002">
        <ele>1205</ele>
        <time>2000-01-01T02:51:51.000Z</time>
      </trkpt>
      <trkpt lat="46.29146" lon="6.49025">
        <ele>1205</ele>
        <time>2000-01-01T02:52:01.000Z</time>
      </trkpt>
      <trkpt lat="46.2919" lon="6.49067">
        <ele>1205</ele>
        <time>2000-01-01T02:52:11.000Z</time>
      </trkpt>
      <trkpt lat="46.29213" lon="6.49044">
        <ele>1205</ele>
        <time>2000-01-01T02:52:21.000Z</time>
      </trkpt>
      <trkpt lat="46.29247" lon="6.49011">
        <ele>1202</ele>
        <time>2000-01-01T02:52:31.000Z</time>
      </trkpt>
      <trkpt lat="46.29269" lon="6.49044">
        <ele>1202</ele>
        <time>2000-01-01T02:52:41.000Z</time>
      </trkpt>
      <trkpt lat="46.29291" lon="6.49078">
        <ele>1201</ele>
        <time>2000-01-01T02:52:51.000Z</time>
      </trkpt>
      <trkpt lat="46.29319" lon="6.4912">
        <ele>1201</ele>
        <time>2000-01-01T02:53:01.000Z</time>
      </trkpt>
      <trkpt lat="46.29352" lon="6.49094">
        <ele>1196</ele>
        <time>2000-01-01T02:53:11.000Z</time>
      </trkpt>
      <trkpt lat="46.29384" lon="6.49067">
        <ele>1192</ele>
        <time>2000-01-01T02:53:21.000Z</time>
      </trkpt>
      <trkpt lat="46.29417" lon="6.49041">
        <ele>1188</ele>
        <time>2000-01-01T02:53:31.000Z</time>
      </trkpt>
      <trkpt lat="46.29449" lon="6.49014">
        <ele>1185</ele>
        <time>2000-01-01T02:53:41.000Z</time>
      </trkpt>
      <trkpt lat="46.29482" lon="6.48987">
        <ele>1182</ele>
        <time>2000-01-01T02:53:51.000Z</time>
      </trkpt>
      <trkpt lat="46.29522" lon="6.48976">
        <ele>1174</ele>
        <time>2000-01-01T02:54:01.000Z</time>
      </trkpt>
      <trkpt lat="46.29561" lon="6.48966">
        <ele>1171</ele>
        <time>2000-01-01T02:54:11.000Z</time>
      </trkpt>
      <trkpt lat="46.296" lon="6.48955">
        <ele>1169</ele>
        <time>2000-01-01T02:54:21.000Z</time>
      </trkpt>
      <trkpt lat="46.29639" lon="6.48944">
        <ele>1164</ele>
        <time>2000-01-01T02:54:31.000Z</time>
      </trkpt>
      <trkpt lat="46.29679" lon="6.48933">
        <ele>1159</ele>
        <time>2000-01-01T02:54:41.000Z</time>
      </trkpt>
      <trkpt lat="46.29718" lon="6.48922">
        <ele>1153</ele>
        <time>2000-01-01T02:54:51.000Z</time>
      </trkpt>
      <trkpt lat="46.29761" lon="6.4891">
        <ele>1152</ele>
        <time>2000-01-01T02:55:01.000Z</time>
      </trkpt>
      <trkpt lat="46.29785" lon="6.48925">
        <ele>1152</ele>
        <time>2000-01-01T02:55:11.000Z</time>
      </trkpt>
      <trkpt lat="46.29817" lon="6.48944">
        <ele>1153</ele>
        <time>2000-01-01T02:55:21.000Z</time>
      </trkpt>
      <trkpt lat="46.29851" lon="6.48931">
        <ele>1158</ele>
        <time>2000-01-01T02:55:31.000Z</time>
      </trkpt>
      <trkpt lat="46.29885" lon="6.48917">
        <ele>1166</ele>
        <time>2000-01-01T02:55:41.000Z</time>
      </trkpt>
      <trkpt lat="46.29919" lon="6.48903">
        <ele>1167</ele>
        <time>2000-01-01T02:55:51.000Z</time>
      </trkpt>
      <trkpt lat="46.29954" lon="6.48889">
        <ele>1166</ele>
        <time>2000-01-01T02:56:01.000Z</time>
      </trkpt>
      <trkpt lat="46.29986" lon="6.4893">
        <ele>1165</ele>
        <time>2000-01-01T02:56:11.000Z</time>
      </trkpt>
      <trkpt lat="46.30017" lon="6.48971">
        <ele>1156</ele>
        <time>2000-01-01T02:56:21.000Z</time>
      </trkpt>
      <trkpt lat="46.30049" lon="6.49012">
        <ele>1147</ele>
        <time>2000-01-01T02:56:31.000Z</time>
      </trkpt>
      <trkpt lat="46.30081" lon="6.49053">
        <ele>1130</ele>
        <time>2000-01-01T02:56:41.000Z</time>
      </trkpt>
      <trkpt lat="46.30113" lon="6.49094">
        <ele>1125</ele>
        <time>2000-01-01T02:56:51.000Z</time>
      </trkpt>
      <trkpt lat="46.30145" lon="6.49135">
        <ele>1114</ele>
        <time>2000-01-01T02:57:01.000Z</time>
      </trkpt>
      <trkpt lat="46.30177" lon="6.49176">
        <ele>1102</ele>
        <time>2000-01-01T02:57:11.000Z</time>
      </trkpt>
      <trkpt lat="46.30208" lon="6.49216">
        <ele>1087</ele>
        <time>2000-01-01T02:57:21.000Z</time>
      </trkpt>
      <trkpt lat="46.3024" lon="6.49258">
        <ele>1069</ele>
        <time>2000-01-01T02:57:31.000Z</time>
      </trkpt>
      <trkpt lat="46.30272" lon="6.49299">
        <ele>1057</ele>
        <time>2000-01-01T02:57:41.000Z</time>
      </trkpt>
      <trkpt lat="46.3033" lon="6.49374">
        <ele>1027</ele>
        <time>2000-01-01T02:57:51.000Z</time>
      </trkpt>
      <trkpt lat="46.30365" lon="6.494">
        <ele>1014</ele>
        <time>2000-01-01T02:58:01.000Z</time>
      </trkpt>
      <trkpt lat="46.304" lon="6.49426">
        <ele>1005</ele>
        <time>2000-01-01T02:58:11.000Z</time>
      </trkpt>
      <trkpt lat="46.30435" lon="6.49453">
        <ele>995</ele>
        <time>2000-01-01T02:58:21.000Z</time>
      </trkpt>
      <trkpt lat="46.3047" lon="6.49479">
        <ele>981</ele>
        <time>2000-01-01T02:58:31.000Z</time>
      </trkpt>
      <trkpt lat="46.30505" lon="6.49506">
        <ele>966</ele>
        <time>2000-01-01T02:58:41.000Z</time>
      </trkpt>
      <trkpt lat="46.3056" lon="6.49547">
        <ele>949</ele>
        <time>2000-01-01T02:58:51.000Z</time>
      </trkpt>
      <trkpt lat="46.30594" lon="6.4957">
        <ele>942</ele>
        <time>2000-01-01T02:59:01.000Z</time>
      </trkpt>
      <trkpt lat="46.30628" lon="6.49592">
        <ele>935</ele>
        <time>2000-01-01T02:59:11.000Z</time>
      </trkpt>
      <trkpt lat="46.30661" lon="6.49615">
        <ele>932</ele>
        <time>2000-01-01T02:59:21.000Z</time>
      </trkpt>
      <trkpt lat="46.30695" lon="6.49638">
        <ele>930</ele>
        <time>2000-01-01T02:59:31.000Z</time>
      </trkpt>
      <trkpt lat="46.30729" lon="6.49661">
        <ele>928</ele>
        <time>2000-01-01T02:59:41.000Z</time>
      </trkpt>
      <trkpt lat="46.30755" lon="6.497">
        <ele>923</ele>
        <time>2000-01-01T02:59:51.000Z</time>
      </trkpt>
      <trkpt lat="46.30781" lon="6.49738">
        <ele>917</ele>
        <time>2000-01-01T03:00:01.000Z</time>
      </trkpt>
      <trkpt lat="46.30807" lon="6.49777">
        <ele>914</ele>
        <time>2000-01-01T03:00:11.000Z</time>
      </trkpt>
      <trkpt lat="46.30857" lon="6.49852">
        <ele>905</ele>
        <time>2000-01-01T03:00:21.000Z</time>
      </trkpt>
      <trkpt lat="46.30872" lon="6.49823">
        <ele>896</ele>
        <time>2000-01-01T03:00:31.000Z</time>
      </trkpt>
      <trkpt lat="46.30889" lon="6.49789">
        <ele>890</ele>
        <time>2000-01-01T03:00:41.000Z</time>
      </trkpt>
      <trkpt lat="46.30915" lon="6.49786">
        <ele>874</ele>
        <time>2000-01-01T03:00:51.000Z</time>
      </trkpt>
      <trkpt lat="46.30947" lon="6.49782">
        <ele>861</ele>
        <time>2000-01-01T03:01:01.000Z</time>
      </trkpt>
      <trkpt lat="46.30942" lon="6.49719">
        <ele>832</ele>
        <time>2000-01-01T03:01:11.000Z</time>
      </trkpt>
      <trkpt lat="46.30966" lon="6.49685">
        <ele>821</ele>
        <time>2000-01-01T03:01:21.000Z</time>
      </trkpt>
      <trkpt lat="46.3094" lon="6.49642">
        <ele>811</ele>
        <time>2000-01-01T03:01:31.000Z</time>
      </trkpt>
      <trkpt lat="46.30953" lon="6.49609">
        <ele>777</ele>
        <time>2000-01-01T03:01:41.000Z</time>
      </trkpt>
      <trkpt lat="46.30971" lon="6.49564">
        <ele>768</ele>
        <time>2000-01-01T03:01:51.000Z</time>
      </trkpt>
      <trkpt lat="46.30934" lon="6.49525">
        <ele>759</ele>
        <time>2000-01-01T03:02:01.000Z</time>
      </trkpt>
      <trkpt lat="46.30961" lon="6.49516">
        <ele>717</ele>
        <time>2000-01-01T03:02:11.000Z</time>
      </trkpt>
      <trkpt lat="46.30997" lon="6.49504">
        <ele>710</ele>
        <time>2000-01-01T03:02:21.000Z</time>
      </trkpt>
      <trkpt lat="46.30985" lon="6.49446">
        <ele>704</ele>
        <time>2000-01-01T03:02:31.000Z</time>
      </trkpt>
      <trkpt lat="46.31002" lon="6.49421">
        <ele>681</ele>
        <time>2000-01-01T03:02:41.000Z</time>
      </trkpt>
      <trkpt lat="46.3102" lon="6.49394">
        <ele>675</ele>
        <time>2000-01-01T03:02:51.000Z</time>
      </trkpt>
      <trkpt lat="46.31001" lon="6.49351">
        <ele>673</ele>
        <time>2000-01-01T03:03:01.000Z</time>
      </trkpt>
      <trkpt lat="46.30981" lon="6.49307">
        <ele>671</ele>
        <time>2000-01-01T03:03:11.000Z</time>
      </trkpt>
      <trkpt lat="46.30962" lon="6.49263">
        <ele>677</ele>
        <time>2000-01-01T03:03:21.000Z</time>
      </trkpt>
      <trkpt lat="46.30935" lon="6.49204">
        <ele>675</ele>
        <time>2000-01-01T03:03:31.000Z</time>
      </trkpt>
      <trkpt lat="46.30953" lon="6.49176">
        <ele>674</ele>
        <time>2000-01-01T03:03:41.000Z</time>
      </trkpt>
      <trkpt lat="46.30978" lon="6.49137">
        <ele>665</ele>
        <time>2000-01-01T03:03:51.000Z</time>
      </trkpt>
      <trkpt lat="46.30965" lon="6.491">
        <ele>664</ele>
        <time>2000-01-01T03:04:01.000Z</time>
      </trkpt>
      <trkpt lat="46.30942" lon="6.49037">
        <ele>668</ele>
        <time>2000-01-01T03:04:11.000Z</time>
      </trkpt>
      <trkpt lat="46.30916" lon="6.48996">
        <ele>672</ele>
        <time>2000-01-01T03:04:21.000Z</time>
      </trkpt>
      <trkpt lat="46.30889" lon="6.48955">
        <ele>671</ele>
        <time>2000-01-01T03:04:31.000Z</time>
      </trkpt>
      <trkpt lat="46.30862" lon="6.48914">
        <ele>672</ele>
        <time>2000-01-01T03:04:41.000Z</time>
      </trkpt>
      <trkpt lat="46.30835" lon="6.48873">
        <ele>673</ele>
        <time>2000-01-01T03:04:51.000Z</time>
      </trkpt>
      <trkpt lat="46.30808" lon="6.48833">
        <ele>675</ele>
        <time>2000-01-01T03:05:01.000Z</time>
      </trkpt>
      <trkpt lat="46.30775" lon="6.48783">
        <ele>675</ele>
        <time>2000-01-01T03:05:11.000Z</time>
      </trkpt>
      <trkpt lat="46.30744" lon="6.48753">
        <ele>675</ele>
        <time>2000-01-01T03:05:21.000Z</time>
      </trkpt>
      <trkpt lat="46.30713" lon="6.48723">
        <ele>676</ele>
        <time>2000-01-01T03:05:31.000Z</time>
      </trkpt>
      <trkpt lat="46.30681" lon="6.48693">
        <ele>695</ele>
        <time>2000-01-01T03:05:41.000Z</time>
      </trkpt>
      <trkpt lat="46.3065" lon="6.48662">
        <ele>702</ele>
        <time>2000-01-01T03:05:51.000Z</time>
      </trkpt>
      <trkpt lat="46.30613" lon="6.48627">
        <ele>711</ele>
        <time>2000-01-01T03:06:01.000Z</time>
      </trkpt>
      <trkpt lat="46.30595" lon="6.48585">
        <ele>713</ele>
        <time>2000-01-01T03:06:11.000Z</time>
      </trkpt>
      <trkpt lat="46.30577" lon="6.48544">
        <ele>715</ele>
        <time>2000-01-01T03:06:21.000Z</time>
      </trkpt>
      <trkpt lat="46.30545" lon="6.48472">
        <ele>709</ele>
        <time>2000-01-01T03:06:31.000Z</time>
      </trkpt>
      <trkpt lat="46.30548" lon="6.48424">
        <ele>704</ele>
        <time>2000-01-01T03:06:41.000Z</time>
      </trkpt>
      <trkpt lat="46.30551" lon="6.48376">
        <ele>700</ele>
        <time>2000-01-01T03:06:51.000Z</time>
      </trkpt>
      <trkpt lat="46.30556" lon="6.48303">
        <ele>696</ele>
        <time>2000-01-01T03:07:01.000Z</time>
      </trkpt>
      <trkpt lat="46.30589" lon="6.48278">
        <ele>687</ele>
        <time>2000-01-01T03:07:11.000Z</time>
      </trkpt>
      <trkpt lat="46.30622" lon="6.48253">
        <ele>678</ele>
        <time>2000-01-01T03:07:21.000Z</time>
      </trkpt>
      <trkpt lat="46.30655" lon="6.48229">
        <ele>673</ele>
        <time>2000-01-01T03:07:31.000Z</time>
      </trkpt>
      <trkpt lat="46.30688" lon="6.48204">
        <ele>660</ele>
        <time>2000-01-01T03:07:41.000Z</time>
      </trkpt>
      <trkpt lat="46.30723" lon="6.48178">
        <ele>656</ele>
        <time>2000-01-01T03:07:51.000Z</time>
      </trkpt>
      <trkpt lat="46.30747" lon="6.48139">
        <ele>653</ele>
        <time>2000-01-01T03:08:01.000Z</time>
      </trkpt>
      <trkpt lat="46.30771" lon="6.48099">
        <ele>652</ele>
        <time>2000-01-01T03:08:11.000Z</time>
      </trkpt>
      <trkpt lat="46.30795" lon="6.48059">
        <ele>652</ele>
        <time>2000-01-01T03:08:21.000Z</time>
      </trkpt>
      <trkpt lat="46.30831" lon="6.47998">
        <ele>643</ele>
        <time>2000-01-01T03:08:31.000Z</time>
      </trkpt>
      <trkpt lat="46.30868" lon="6.47991">
        <ele>643</ele>
        <time>2000-01-01T03:08:41.000Z</time>
      </trkpt>
      <trkpt lat="46.30906" lon="6.47985">
        <ele>641</ele>
        <time>2000-01-01T03:08:51.000Z</time>
      </trkpt>
      <trkpt lat="46.30943" lon="6.47978">
        <ele>638</ele>
        <time>2000-01-01T03:09:01.000Z</time>
      </trkpt>
      <trkpt lat="46.3098" lon="6.47971">
        <ele>636</ele>
        <time>2000-01-01T03:09:11.000Z</time>
      </trkpt>
      <trkpt lat="46.31021" lon="6.47964">
        <ele>631</ele>
        <time>2000-01-01T03:09:21.000Z</time>
      </trkpt>
      <trkpt lat="46.31061" lon="6.47985">
        <ele>631</ele>
        <time>2000-01-01T03:09:31.000Z</time>
      </trkpt>
      <trkpt lat="46.31086" lon="6.4797">
        <ele>630</ele>
        <time>2000-01-01T03:09:41.000Z</time>
      </trkpt>
      <trkpt lat="46.3112" lon="6.47949">
        <ele>630</ele>
        <time>2000-01-01T03:09:51.000Z</time>
      </trkpt>
      <trkpt lat="46.31136" lon="6.47913">
        <ele>630</ele>
        <time>2000-01-01T03:10:01.000Z</time>
      </trkpt>
      <trkpt lat="46.31162" lon="6.47852">
        <ele>627</ele>
        <time>2000-01-01T03:10:11.000Z</time>
      </trkpt>
      <trkpt lat="46.3115" lon="6.47809">
        <ele>624</ele>
        <time>2000-01-01T03:10:21.000Z</time>
      </trkpt>
      <trkpt lat="46.31137" lon="6.47766">
        <ele>626</ele>
        <time>2000-01-01T03:10:31.000Z</time>
      </trkpt>
      <trkpt lat="46.31122" lon="6.4771">
        <ele>625</ele>
        <time>2000-01-01T03:10:41.000Z</time>
      </trkpt>
      <trkpt lat="46.31099" lon="6.47682">
        <ele>625</ele>
        <time>2000-01-01T03:10:51.000Z</time>
      </trkpt>
      <trkpt lat="46.31058" lon="6.47629">
        <ele>621</ele>
        <time>2000-01-01T03:11:01.000Z</time>
      </trkpt>
      <trkpt lat="46.31085" lon="6.47591">
        <ele>613</ele>
        <time>2000-01-01T03:11:11.000Z</time>
      </trkpt>
      <trkpt lat="46.31111" lon="6.47554">
        <ele>608</ele>
        <time>2000-01-01T03:11:21.000Z</time>
      </trkpt>
      <trkpt lat="46.31138" lon="6.47516">
        <ele>603</ele>
        <time>2000-01-01T03:11:31.000Z</time>
      </trkpt>
      <trkpt lat="46.31189" lon="6.47444">
        <ele>602</ele>
        <time>2000-01-01T03:11:41.000Z</time>
      </trkpt>
      <trkpt lat="46.31219" lon="6.47423">
        <ele>602</ele>
        <time>2000-01-01T03:11:51.000Z</time>
      </trkpt>
      <trkpt lat="46.3125" lon="6.47402">
        <ele>604</ele>
        <time>2000-01-01T03:12:01.000Z</time>
      </trkpt>
      <trkpt lat="46.31303" lon="6.47365">
        <ele>605</ele>
        <time>2000-01-01T03:12:11.000Z</time>
      </trkpt>
      <trkpt lat="46.31313" lon="6.47325">
        <ele>606</ele>
        <time>2000-01-01T03:12:21.000Z</time>
      </trkpt>
      <trkpt lat="46.31332" lon="6.47256">
        <ele>611</ele>
        <time>2000-01-01T03:12:31.000Z</time>
      </trkpt>
      <trkpt lat="46.31359" lon="6.47247">
        <ele>614</ele>
        <time>2000-01-01T03:12:41.000Z</time>
      </trkpt>
      <trkpt lat="46.31398" lon="6.47234">
        <ele>617</ele>
        <time>2000-01-01T03:12:51.000Z</time>
      </trkpt>
      <trkpt lat="46.31398" lon="6.47187">
        <ele>619</ele>
        <time>2000-01-01T03:13:01.000Z</time>
      </trkpt>
      <trkpt lat="46.31398" lon="6.47139">
        <ele>620</ele>
        <time>2000-01-01T03:13:11.000Z</time>
      </trkpt>
      <trkpt lat="46.31398" lon="6.47073">
        <ele>623</ele>
        <time>2000-01-01T03:13:21.000Z</time>
      </trkpt>
      <trkpt lat="46.3139" lon="6.47023">
        <ele>621</ele>
        <time>2000-01-01T03:13:31.000Z</time>
      </trkpt>
      <trkpt lat="46.31383" lon="6.46972">
        <ele>622</ele>
        <time>2000-01-01T03:13:41.000Z</time>
      </trkpt>
      <trkpt lat="46.31376" lon="6.46921">
        <ele>622</ele>
        <time>2000-01-01T03:13:51.000Z</time>
      </trkpt>
      <trkpt lat="46.31366" lon="6.46857">
        <ele>622</ele>
        <time>2000-01-01T03:14:01.000Z</time>
      </trkpt>
      <trkpt lat="46.31345" lon="6.46823">
        <ele>632</ele>
        <time>2000-01-01T03:14:11.000Z</time>
      </trkpt>
      <trkpt lat="46.31323" lon="6.4679">
        <ele>632</ele>
        <time>2000-01-01T03:14:21.000Z</time>
      </trkpt>
      <trkpt lat="46.313" lon="6.46753">
        <ele>632</ele>
        <time>2000-01-01T03:14:31.000Z</time>
      </trkpt>
      <trkpt lat="46.3131" lon="6.46708">
        <ele>632</ele>
        <time>2000-01-01T03:14:41.000Z</time>
      </trkpt>
      <trkpt lat="46.31321" lon="6.46662">
        <ele>633</ele>
        <time>2000-01-01T03:14:51.000Z</time>
      </trkpt>
      <trkpt lat="46.31337" lon="6.46595">
        <ele>631</ele>
        <time>2000-01-01T03:15:01.000Z</time>
      </trkpt>
      <trkpt lat="46.31318" lon="6.4657">
        <ele>629</ele>
        <time>2000-01-01T03:15:11.000Z</time>
      </trkpt>
      <trkpt lat="46.31297" lon="6.46541">
        <ele>629</ele>
        <time>2000-01-01T03:15:21.000Z</time>
      </trkpt>
      <trkpt lat="46.3132" lon="6.46506">
        <ele>629</ele>
        <time>2000-01-01T03:15:31.000Z</time>
      </trkpt>
      <trkpt lat="46.31343" lon="6.46471">
        <ele>628</ele>
        <time>2000-01-01T03:15:41.000Z</time>
      </trkpt>
      <trkpt lat="46.3138" lon="6.46417">
        <ele>628</ele>
        <time>2000-01-01T03:15:51.000Z</time>
      </trkpt>
      <trkpt lat="46.31379" lon="6.46363">
        <ele>630</ele>
        <time>2000-01-01T03:16:01.000Z</time>
      </trkpt>
      <trkpt lat="46.31377" lon="6.46309">
        <ele>632</ele>
        <time>2000-01-01T03:16:11.000Z</time>
      </trkpt>
      <trkpt lat="46.31376" lon="6.46256">
        <ele>633</ele>
        <time>2000-01-01T03:16:21.000Z</time>
      </trkpt>
      <trkpt lat="46.31374" lon="6.46155">
        <ele>635</ele>
        <time>2000-01-01T03:16:31.000Z</time>
      </trkpt>
      <trkpt lat="46.31396" lon="6.46125">
        <ele>639</ele>
        <time>2000-01-01T03:16:41.000Z</time>
      </trkpt>
      <trkpt lat="46.31439" lon="6.46067">
        <ele>644</ele>
        <time>2000-01-01T03:16:51.000Z</time>
      </trkpt>
      <trkpt lat="46.31442" lon="6.46022">
        <ele>647</ele>
        <time>2000-01-01T03:17:01.000Z</time>
      </trkpt>
      <trkpt lat="46.31445" lon="6.45976">
        <ele>650</ele>
        <time>2000-01-01T03:17:11.000Z</time>
      </trkpt>
      <trkpt lat="46.31448" lon="6.45927">
        <ele>650</ele>
        <time>2000-01-01T03:17:21.000Z</time>
      </trkpt>
      <trkpt lat="46.31485" lon="6.45945">
        <ele>652</ele>
        <time>2000-01-01T03:17:31.000Z</time>
      </trkpt>
      <trkpt lat="46.31521" lon="6.45963">
        <ele>652</ele>
        <time>2000-01-01T03:17:41.000Z</time>
      </trkpt>
      <trkpt lat="46.31558" lon="6.4598">
        <ele>654</ele>
        <time>2000-01-01T03:17:51.000Z</time>
      </trkpt>
      <trkpt lat="46.31595" lon="6.45998">
        <ele>652</ele>
        <time>2000-01-01T03:18:01.000Z</time>
      </trkpt>
      <trkpt lat="46.31663" lon="6.4603">
        <ele>653</ele>
        <time>2000-01-01T03:18:11.000Z</time>
      </trkpt>
      <trkpt lat="46.31703" lon="6.4604">
        <ele>654</ele>
        <time>2000-01-01T03:18:21.000Z</time>
      </trkpt>
      <trkpt lat="46.31743" lon="6.4605">
        <ele>653</ele>
        <time>2000-01-01T03:18:31.000Z</time>
      </trkpt>
      <trkpt lat="46.31783" lon="6.46061">
        <ele>652</ele>
        <time>2000-01-01T03:18:41.000Z</time>
      </trkpt>
      <trkpt lat="46.31823" lon="6.46071">
        <ele>652</ele>
        <time>2000-01-01T03:18:51.000Z</time>
      </trkpt>
      <trkpt lat="46.31863" lon="6.46081">
        <ele>653</ele>
        <time>2000-01-01T03:19:01.000Z</time>
      </trkpt>
      <trkpt lat="46.31903" lon="6.46091">
        <ele>654</ele>
        <time>2000-01-01T03:19:11.000Z</time>
      </trkpt>
      <trkpt lat="46.31978" lon="6.4611">
        <ele>655</ele>
        <time>2000-01-01T03:19:21.000Z</time>
      </trkpt>
      <trkpt lat="46.32016" lon="6.4612">
        <ele>654</ele>
        <time>2000-01-01T03:19:31.000Z</time>
      </trkpt>
      <trkpt lat="46.32054" lon="6.46129">
        <ele>656</ele>
        <time>2000-01-01T03:19:41.000Z</time>
      </trkpt>
      <trkpt lat="46.32092" lon="6.46139">
        <ele>656</ele>
        <time>2000-01-01T03:19:51.000Z</time>
      </trkpt>
      <trkpt lat="46.32129" lon="6.46149">
        <ele>655</ele>
        <time>2000-01-01T03:20:01.000Z</time>
      </trkpt>
      <trkpt lat="46.32193" lon="6.46166">
        <ele>655</ele>
        <time>2000-01-01T03:20:11.000Z</time>
      </trkpt>
      <trkpt lat="46.32216" lon="6.46201">
        <ele>655</ele>
        <time>2000-01-01T03:20:21.000Z</time>
      </trkpt>
      <trkpt lat="46.32239" lon="6.46236">
        <ele>653</ele>
        <time>2000-01-01T03:20:31.000Z</time>
      </trkpt>
      <trkpt lat="46.32275" lon="6.4629">
        <ele>653</ele>
        <time>2000-01-01T03:20:41.000Z</time>
      </trkpt>
      <trkpt lat="46.32313" lon="6.46304">
        <ele>653</ele>
        <time>2000-01-01T03:20:51.000Z</time>
      </trkpt>
      <trkpt lat="46.32352" lon="6.46318">
        <ele>654</ele>
        <time>2000-01-01T03:21:01.000Z</time>
      </trkpt>
      <trkpt lat="46.3239" lon="6.46332">
        <ele>657</ele>
        <time>2000-01-01T03:21:11.000Z</time>
      </trkpt>
      <trkpt lat="46.32428" lon="6.46346">
        <ele>657</ele>
        <time>2000-01-01T03:21:21.000Z</time>
      </trkpt>
      <trkpt lat="46.32467" lon="6.46361">
        <ele>651</ele>
        <time>2000-01-01T03:21:31.000Z</time>
      </trkpt>
      <trkpt lat="46.32531" lon="6.46384">
        <ele>647</ele>
        <time>2000-01-01T03:21:41.000Z</time>
      </trkpt>
      <trkpt lat="46.32568" lon="6.4639">
        <ele>647</ele>
        <time>2000-01-01T03:21:51.000Z</time>
      </trkpt>
      <trkpt lat="46.32604" lon="6.46395">
        <ele>647</ele>
        <time>2000-01-01T03:22:01.000Z</time>
      </trkpt>
      <trkpt lat="46.3264" lon="6.464">
        <ele>652</ele>
        <time>2000-01-01T03:22:11.000Z</time>
      </trkpt>
      <trkpt lat="46.32702" lon="6.46408">
        <ele>655</ele>
        <time>2000-01-01T03:22:21.000Z</time>
      </trkpt>
      <trkpt lat="46.32726" lon="6.46405">
        <ele>657</ele>
        <time>2000-01-01T03:22:31.000Z</time>
      </trkpt>
      <trkpt lat="46.32752" lon="6.46402">
        <ele>659</ele>
        <time>2000-01-01T03:22:41.000Z</time>
      </trkpt>
      <trkpt lat="46.32773" lon="6.46361">
        <ele>661</ele>
        <time>2000-01-01T03:22:51.000Z</time>
      </trkpt>
      <trkpt lat="46.32794" lon="6.4632">
        <ele>661</ele>
        <time>2000-01-01T03:23:01.000Z</time>
      </trkpt>
      <trkpt lat="46.32815" lon="6.46279">
        <ele>661</ele>
        <time>2000-01-01T03:23:11.000Z</time>
      </trkpt>
      <trkpt lat="46.32838" lon="6.46234">
        <ele>659</ele>
        <time>2000-01-01T03:23:21.000Z</time>
      </trkpt>
      <trkpt lat="46.32825" lon="6.46196">
        <ele>658</ele>
        <time>2000-01-01T03:23:31.000Z</time>
      </trkpt>
      <trkpt lat="46.32856" lon="6.46175">
        <ele>649</ele>
        <time>2000-01-01T03:23:41.000Z</time>
      </trkpt>
      <trkpt lat="46.32887" lon="6.46155">
        <ele>641</ele>
        <time>2000-01-01T03:23:51.000Z</time>
      </trkpt>
      <trkpt lat="46.32945" lon="6.46118">
        <ele>636</ele>
        <time>2000-01-01T03:24:01.000Z</time>
      </trkpt>
      <trkpt lat="46.32982" lon="6.46119">
        <ele>627</ele>
        <time>2000-01-01T03:24:11.000Z</time>
      </trkpt>
      <trkpt lat="46.3302" lon="6.4612">
        <ele>623</ele>
        <time>2000-01-01T03:24:21.000Z</time>
      </trkpt>
      <trkpt lat="46.33058" lon="6.46121">
        <ele>620</ele>
        <time>2000-01-01T03:24:31.000Z</time>
      </trkpt>
      <trkpt lat="46.33096" lon="6.46122">
        <ele>617</ele>
        <time>2000-01-01T03:24:41.000Z</time>
      </trkpt>
      <trkpt lat="46.33148" lon="6.46123">
        <ele>617</ele>
        <time>2000-01-01T03:24:51.000Z</time>
      </trkpt>
      <trkpt lat="46.33163" lon="6.46151">
        <ele>618</ele>
        <time>2000-01-01T03:25:01.000Z</time>
      </trkpt>
      <trkpt lat="46.33182" lon="6.46185">
        <ele>610</ele>
        <time>2000-01-01T03:25:11.000Z</time>
      </trkpt>
      <trkpt lat="46.33215" lon="6.46208">
        <ele>603</ele>
        <time>2000-01-01T03:25:21.000Z</time>
      </trkpt>
      <trkpt lat="46.33247" lon="6.46232">
        <ele>602</ele>
        <time>2000-01-01T03:25:31.000Z</time>
      </trkpt>
      <trkpt lat="46.3328" lon="6.46256">
        <ele>602</ele>
        <time>2000-01-01T03:25:41.000Z</time>
      </trkpt>
      <trkpt lat="46.33337" lon="6.46296">
        <ele>576</ele>
        <time>2000-01-01T03:25:51.000Z</time>
      </trkpt>
      <trkpt lat="46.3335" lon="6.4634">
        <ele>573</ele>
        <time>2000-01-01T03:26:01.000Z</time>
      </trkpt>
      <trkpt lat="46.33364" lon="6.46383">
        <ele>571</ele>
        <time>2000-01-01T03:26:11.000Z</time>
      </trkpt>
      <trkpt lat="46.33382" lon="6.46442">
        <ele>564</ele>
        <time>2000-01-01T03:26:21.000Z</time>
      </trkpt>
      <trkpt lat="46.33409" lon="6.46446">
        <ele>564</ele>
        <time>2000-01-01T03:26:31.000Z</time>
      </trkpt>
      <trkpt lat="46.33447" lon="6.46451">
        <ele>570</ele>
        <time>2000-01-01T03:26:41.000Z</time>
      </trkpt>
      <trkpt lat="46.33451" lon="6.46497">
        <ele>576</ele>
        <time>2000-01-01T03:26:51.000Z</time>
      </trkpt>
      <trkpt lat="46.33455" lon="6.46544">
        <ele>576</ele>
        <time>2000-01-01T03:27:01.000Z</time>
      </trkpt>
      <trkpt lat="46.3346" lon="6.46603">
        <ele>570</ele>
        <time>2000-01-01T03:27:11.000Z</time>
      </trkpt>
      <trkpt lat="46.3348" lon="6.46613">
        <ele>565</ele>
        <time>2000-01-01T03:27:21.000Z</time>
      </trkpt>
      <trkpt lat="46.33496" lon="6.46641">
        <ele>563</ele>
        <time>2000-01-01T03:27:31.000Z</time>
      </trkpt>
      <trkpt lat="46.33515" lon="6.46673">
        <ele>563</ele>
        <time>2000-01-01T03:27:41.000Z</time>
      </trkpt>
      <trkpt lat="46.33533" lon="6.46708">
        <ele>559</ele>
        <time>2000-01-01T03:27:51.000Z</time>
      </trkpt>
      <trkpt lat="46.33568" lon="6.46775">
        <ele>556</ele>
        <time>2000-01-01T03:28:01.000Z</time>
      </trkpt>
      <trkpt lat="46.33575" lon="6.4683">
        <ele>548</ele>
        <time>2000-01-01T03:28:11.000Z</time>
      </trkpt>
      <trkpt lat="46.33611" lon="6.46831">
        <ele>547</ele>
        <time>2000-01-01T03:28:21.000Z</time>
      </trkpt>
      <trkpt lat="46.33623" lon="6.46792">
        <ele>547</ele>
        <time>2000-01-01T03:28:31.000Z</time>
      </trkpt>
      <trkpt lat="46.33644" lon="6.46726">
        <ele>542</ele>
        <time>2000-01-01T03:28:41.000Z</time>
      </trkpt>
      <trkpt lat="46.33667" lon="6.46728">
        <ele>537</ele>
        <time>2000-01-01T03:28:51.000Z</time>
      </trkpt>
      <trkpt lat="46.33687" lon="6.46692">
        <ele>537</ele>
        <time>2000-01-01T03:29:01.000Z</time>
      </trkpt>
      <trkpt lat="46.33707" lon="6.46657">
        <ele>524</ele>
        <time>2000-01-01T03:29:11.000Z</time>
      </trkpt>
      <trkpt lat="46.33728" lon="6.46618">
        <ele>518</ele>
        <time>2000-01-01T03:29:21.000Z</time>
      </trkpt>
      <trkpt lat="46.33761" lon="6.46603">
        <ele>514</ele>
        <time>2000-01-01T03:29:31.000Z</time>
      </trkpt>
      <trkpt lat="46.33788" lon="6.46625">
        <ele>508</ele>
        <time>2000-01-01T03:29:41.000Z</time>
      </trkpt>
      <trkpt lat="46.33816" lon="6.46646">
        <ele>508</ele>
        <time>2000-01-01T03:29:51.000Z</time>
      </trkpt>
      <trkpt lat="46.33843" lon="6.46668">
        <ele>507</ele>
        <time>2000-01-01T03:30:01.000Z</time>
      </trkpt>
      <trkpt lat="46.33889" lon="6.46667">
        <ele>499</ele>
        <time>2000-01-01T03:30:11.000Z</time>
      </trkpt>
      <trkpt lat="46.33896" lon="6.46688">
        <ele>492.9</ele>
        <time>2000-01-01T03:30:21.000Z</time>
      </trkpt>
      <trkpt lat="46.3396" lon="6.46627">
        <ele>500</ele>
        <time>2000-01-01T03:30:31.000Z</time>
      </trkpt>
      <trkpt lat="46.33945" lon="6.46681">
        <ele>501</ele>
        <time>2000-01-01T03:30:41.000Z</time>
      </trkpt>
      <trkpt lat="46.33962" lon="6.46727">
        <ele>509</ele>
        <time>2000-01-01T03:30:51.000Z</time>
      </trkpt>
      <trkpt lat="46.33989" lon="6.46719">
        <ele>509</ele>
        <time>2000-01-01T03:31:01.000Z</time>
      </trkpt>
      <trkpt lat="46.34028" lon="6.46707">
        <ele>509</ele>
        <time>2000-01-01T03:31:11.000Z</time>
      </trkpt>
      <trkpt lat="46.34041" lon="6.4675">
        <ele>509</ele>
        <time>2000-01-01T03:31:21.000Z</time>
      </trkpt>
      <trkpt lat="46.34054" lon="6.46793">
        <ele>509</ele>
        <time>2000-01-01T03:31:31.000Z</time>
      </trkpt>
      <trkpt lat="46.34071" lon="6.46849">
        <ele>512</ele>
        <time>2000-01-01T03:31:41.000Z</time>
      </trkpt>
      <trkpt lat="46.34045" lon="6.46899">
        <ele>512</ele>
        <time>2000-01-01T03:31:51.000Z</time>
      </trkpt>
      <trkpt lat="46.34061" lon="6.46948">
        <ele>513</ele>
        <time>2000-01-01T03:32:01.000Z</time>
      </trkpt>
      <trkpt lat="46.34077" lon="6.46996">
        <ele>514</ele>
        <time>2000-01-01T03:32:11.000Z</time>
      </trkpt>
      <trkpt lat="46.34094" lon="6.47044">
        <ele>519</ele>
        <time>2000-01-01T03:32:21.000Z</time>
      </trkpt>
      <trkpt lat="46.34126" lon="6.4714">
        <ele>521</ele>
        <time>2000-01-01T03:32:31.000Z</time>
      </trkpt>
      <trkpt lat="46.34111" lon="6.47173">
        <ele>522</ele>
        <time>2000-01-01T03:32:41.000Z</time>
      </trkpt>
      <trkpt lat="46.34088" lon="6.47223">
        <ele>525</ele>
        <time>2000-01-01T03:32:51.000Z</time>
      </trkpt>
      <trkpt lat="46.34089" lon="6.47262">
        <ele>525</ele>
        <time>2000-01-01T03:33:01.000Z</time>
      </trkpt>
      <trkpt lat="46.3409" lon="6.47316">
        <ele>525</ele>
        <time>2000-01-01T03:33:11.000Z</time>
      </trkpt>
      <trkpt lat="46.34131" lon="6.47326">
        <ele>527</ele>
        <time>2000-01-01T03:33:21.000Z</time>
      </trkpt>
      <trkpt lat="46.3416" lon="6.47358">
        <ele>530</ele>
        <time>2000-01-01T03:33:31.000Z</time>
      </trkpt>
      <trkpt lat="46.34188" lon="6.4739">
        <ele>532</ele>
        <time>2000-01-01T03:33:41.000Z</time>
      </trkpt>
      <trkpt lat="46.34217" lon="6.47421">
        <ele>533</ele>
        <time>2000-01-01T03:33:51.000Z</time>
      </trkpt>
      <trkpt lat="46.34257" lon="6.47466">
        <ele>536</ele>
        <time>2000-01-01T03:34:01.000Z</time>
      </trkpt>
      <trkpt lat="46.34292" lon="6.47485">
        <ele>538</ele>
        <time>2000-01-01T03:34:11.000Z</time>
      </trkpt>
      <trkpt lat="46.34326" lon="6.47505">
        <ele>540</ele>
        <time>2000-01-01T03:34:21.000Z</time>
      </trkpt>
      <trkpt lat="46.34361" lon="6.47525">
        <ele>539</ele>
        <time>2000-01-01T03:34:31.000Z</time>
      </trkpt>
      <trkpt lat="46.34428" lon="6.47562">
        <ele>539</ele>
        <time>2000-01-01T03:34:41.000Z</time>
      </trkpt>
      <trkpt lat="46.34404" lon="6.47585">
        <ele>539</ele>
        <time>2000-01-01T03:34:51.000Z</time>
      </trkpt>
      <trkpt lat="46.3437" lon="6.47618">
        <ele>540</ele>
        <time>2000-01-01T03:35:01.000Z</time>
      </trkpt>
      <trkpt lat="46.34388" lon="6.47646">
        <ele>542</ele>
        <time>2000-01-01T03:35:11.000Z</time>
      </trkpt>
      <trkpt lat="46.34413" lon="6.47683">
        <ele>541</ele>
        <time>2000-01-01T03:35:21.000Z</time>
      </trkpt>
      <trkpt lat="46.34444" lon="6.47704">
        <ele>541</ele>
        <time>2000-01-01T03:35:31.000Z</time>
      </trkpt>
      <trkpt lat="46.34476" lon="6.47726">
        <ele>538</ele>
        <time>2000-01-01T03:35:41.000Z</time>
      </trkpt>
      <trkpt lat="46.34539" lon="6.47768">
        <ele>539</ele>
        <time>2000-01-01T03:35:51.000Z</time>
      </trkpt>
      <trkpt lat="46.34559" lon="6.47802">
        <ele>540</ele>
        <time>2000-01-01T03:36:01.000Z</time>
      </trkpt>
      <trkpt lat="46.34598" lon="6.47867">
        <ele>541</ele>
        <time>2000-01-01T03:36:11.000Z</time>
      </trkpt>
      <trkpt lat="46.34622" lon="6.47868">
        <ele>540</ele>
        <time>2000-01-01T03:36:21.000Z</time>
      </trkpt>
      <trkpt lat="46.3465" lon="6.47869">
        <ele>540</ele>
        <time>2000-01-01T03:36:31.000Z</time>
      </trkpt>
      <trkpt lat="46.34685" lon="6.4791">
        <ele>540</ele>
        <time>2000-01-01T03:36:41.000Z</time>
      </trkpt>
      <trkpt lat="46.34714" lon="6.47918">
        <ele>540</ele>
        <time>2000-01-01T03:36:51.000Z</time>
      </trkpt>
      <trkpt lat="46.34737" lon="6.47926">
        <ele>540</ele>
        <time>2000-01-01T03:37:01.000Z</time>
      </trkpt>
      <trkpt lat="46.34759" lon="6.47934">
        <ele>544</ele>
        <time>2000-01-01T03:37:11.000Z</time>
      </trkpt>
      <trkpt lat="46.34763" lon="6.47959">
        <ele>530.2</ele>
        <time>2000-01-01T03:37:21.000Z</time>
      </trkpt>
      <trkpt lat="46.34717" lon="6.4798">
        <ele>546</ele>
        <time>2000-01-01T03:37:31.000Z</time>
      </trkpt>
      <trkpt lat="46.34699" lon="6.48017">
        <ele>549</ele>
        <time>2000-01-01T03:37:41.000Z</time>
      </trkpt>
      <trkpt lat="46.34665" lon="6.48089">
        <ele>550</ele>
        <time>2000-01-01T03:37:51.000Z</time>
      </trkpt>
      <trkpt lat="46.347" lon="6.48094">
        <ele>552</ele>
        <time>2000-01-01T03:38:01.000Z</time>
      </trkpt>
      <trkpt lat="46.34735" lon="6.481">
        <ele>557</ele>
        <time>2000-01-01T03:38:11.000Z</time>
      </trkpt>
      <trkpt lat="46.3477" lon="6.48106">
        <ele>562</ele>
        <time>2000-01-01T03:38:21.000Z</time>
      </trkpt>
      <trkpt lat="46.34805" lon="6.48112">
        <ele>562</ele>
        <time>2000-01-01T03:38:31.000Z</time>
      </trkpt>
      <trkpt lat="46.34842" lon="6.4812">
        <ele>562</ele>
        <time>2000-01-01T03:38:41.000Z</time>
      </trkpt>
      <trkpt lat="46.34878" lon="6.48127">
        <ele>560</ele>
        <time>2000-01-01T03:38:51.000Z</time>
      </trkpt>
      <trkpt lat="46.34914" lon="6.48135">
        <ele>556</ele>
        <time>2000-01-01T03:39:01.000Z</time>
      </trkpt>
      <trkpt lat="46.34976" lon="6.48148">
        <ele>555</ele>
        <time>2000-01-01T03:39:11.000Z</time>
      </trkpt>
      <trkpt lat="46.34998" lon="6.48173">
        <ele>551</ele>
        <time>2000-01-01T03:39:21.000Z</time>
      </trkpt>
      <trkpt lat="46.35032" lon="6.4821">
        <ele>548</ele>
        <time>2000-01-01T03:39:31.000Z</time>
      </trkpt>
      <trkpt lat="46.35059" lon="6.48247">
        <ele>545</ele>
        <time>2000-01-01T03:39:41.000Z</time>
      </trkpt>
      <trkpt lat="46.35086" lon="6.48283">
        <ele>541</ele>
        <time>2000-01-01T03:39:51.000Z</time>
      </trkpt>
      <trkpt lat="46.35113" lon="6.48319">
        <ele>541</ele>
        <time>2000-01-01T03:40:01.000Z</time>
      </trkpt>
      <trkpt lat="46.35162" lon="6.48384">
        <ele>541</ele>
        <time>2000-01-01T03:40:11.000Z</time>
      </trkpt>
      <trkpt lat="46.35199" lon="6.48408">
        <ele>541</ele>
        <time>2000-01-01T03:40:21.000Z</time>
      </trkpt>
      <trkpt lat="46.35171" lon="6.48435">
        <ele>541</ele>
        <time>2000-01-01T03:40:31.000Z</time>
      </trkpt>
      <trkpt lat="46.35143" lon="6.48463">
        <ele>541</ele>
        <time>2000-01-01T03:40:41.000Z</time>
      </trkpt>
      <trkpt lat="46.35093" lon="6.48511">
        <ele>542</ele>
        <time>2000-01-01T03:40:51.000Z</time>
      </trkpt>
      <trkpt lat="46.35064" lon="6.48548">
        <ele>544</ele>
        <time>2000-01-01T03:41:01.000Z</time>
      </trkpt>
      <trkpt lat="46.35035" lon="6.48585">
        <ele>547</ele>
        <time>2000-01-01T03:41:11.000Z</time>
      </trkpt>
      <trkpt lat="46.35007" lon="6.48622">
        <ele>547</ele>
        <time>2000-01-01T03:41:21.000Z</time>
      </trkpt>
      <trkpt lat="46.34978" lon="6.48659">
        <ele>545</ele>
        <time>2000-01-01T03:41:31.000Z</time>
      </trkpt>
      <trkpt lat="46.3493" lon="6.48721">
        <ele>546</ele>
        <time>2000-01-01T03:41:41.000Z</time>
      </trkpt>
      <trkpt lat="46.3494" lon="6.48768">
        <ele>548</ele>
        <time>2000-01-01T03:41:51.000Z</time>
      </trkpt>
      <trkpt lat="46.3495" lon="6.48815">
        <ele>548</ele>
        <time>2000-01-01T03:42:01.000Z</time>
      </trkpt>
      <trkpt lat="46.34968" lon="6.48897">
        <ele>550</ele>
        <time>2000-01-01T03:42:11.000Z</time>
      </trkpt>
      <trkpt lat="46.34973" lon="6.48939">
        <ele>550</ele>
        <time>2000-01-01T03:42:21.000Z</time>
      </trkpt>
      <trkpt lat="46.3498" lon="6.49013">
        <ele>550</ele>
        <time>2000-01-01T03:42:31.000Z</time>
      </trkpt>
      <trkpt lat="46.35001" lon="6.49054">
        <ele>552</ele>
        <time>2000-01-01T03:42:41.000Z</time>
      </trkpt>
      <trkpt lat="46.35022" lon="6.49094">
        <ele>551</ele>
        <time>2000-01-01T03:42:51.000Z</time>
      </trkpt>
      <trkpt lat="46.35043" lon="6.49135">
        <ele>551</ele>
        <time>2000-01-01T03:43:01.000Z</time>
      </trkpt>
      <trkpt lat="46.35065" lon="6.49176">
        <ele>550</ele>
        <time>2000-01-01T03:43:11.000Z</time>
      </trkpt>
      <trkpt lat="46.35096" lon="6.49204">
        <ele>549</ele>
        <time>2000-01-01T03:43:21.000Z</time>
      </trkpt>
      <trkpt lat="46.35127" lon="6.49231">
        <ele>549</ele>
        <time>2000-01-01T03:43:31.000Z</time>
      </trkpt>
      <trkpt lat="46.35159" lon="6.49259">
        <ele>548</ele>
        <time>2000-01-01T03:43:41.000Z</time>
      </trkpt>
      <trkpt lat="46.35214" lon="6.49307">
        <ele>536</ele>
        <time>2000-01-01T03:43:51.000Z</time>
      </trkpt>
      <trkpt lat="46.35249" lon="6.49295">
        <ele>535</ele>
        <time>2000-01-01T03:44:01.000Z</time>
      </trkpt>
      <trkpt lat="46.35284" lon="6.49282">
        <ele>530</ele>
        <time>2000-01-01T03:44:11.000Z</time>
      </trkpt>
      <trkpt lat="46.3532" lon="6.4927">
        <ele>530</ele>
        <time>2000-01-01T03:44:21.000Z</time>
      </trkpt>
      <trkpt lat="46.35373" lon="6.49251">
        <ele>521</ele>
        <time>2000-01-01T03:44:31.000Z</time>
      </trkpt>
      <trkpt lat="46.35396" lon="6.49242">
        <ele>518</ele>
        <time>2000-01-01T03:44:41.000Z</time>
      </trkpt>
      <trkpt lat="46.35421" lon="6.49232">
        <ele>517</ele>
        <time>2000-01-01T03:44:51.000Z</time>
      </trkpt>
      <trkpt lat="46.35457" lon="6.49248">
        <ele>509</ele>
        <time>2000-01-01T03:45:01.000Z</time>
      </trkpt>
      <trkpt lat="46.35492" lon="6.49264">
        <ele>508</ele>
        <time>2000-01-01T03:45:11.000Z</time>
      </trkpt>
      <trkpt lat="46.35528" lon="6.4928">
        <ele>508</ele>
        <time>2000-01-01T03:45:21.000Z</time>
      </trkpt>
      <trkpt lat="46.35598" lon="6.49311">
        <ele>508</ele>
        <time>2000-01-01T03:45:31.000Z</time>
      </trkpt>
      <trkpt lat="46.35624" lon="6.49342">
        <ele>502</ele>
        <time>2000-01-01T03:45:41.000Z</time>
      </trkpt>
      <trkpt lat="46.3565" lon="6.49372">
        <ele>501</ele>
        <time>2000-01-01T03:45:51.000Z</time>
      </trkpt>
      <trkpt lat="46.35694" lon="6.49423">
        <ele>505</ele>
        <time>2000-01-01T03:46:01.000Z</time>
      </trkpt>
      <trkpt lat="46.35687" lon="6.49465">
        <ele>509</ele>
        <time>2000-01-01T03:46:11.000Z</time>
      </trkpt>
      <trkpt lat="46.35675" lon="6.49543">
        <ele>521</ele>
        <time>2000-01-01T03:46:21.000Z</time>
      </trkpt>
      <trkpt lat="46.35693" lon="6.4959">
        <ele>525</ele>
        <time>2000-01-01T03:46:31.000Z</time>
      </trkpt>
      <trkpt lat="46.3571" lon="6.49638">
        <ele>537</ele>
        <time>2000-01-01T03:46:41.000Z</time>
      </trkpt>
      <trkpt lat="46.35728" lon="6.49685">
        <ele>543</ele>
        <time>2000-01-01T03:46:51.000Z</time>
      </trkpt>
      <trkpt lat="46.35746" lon="6.49733">
        <ele>549</ele>
        <time>2000-01-01T03:47:01.000Z</time>
      </trkpt>
      <trkpt lat="46.35765" lon="6.49783">
        <ele>551</ele>
        <time>2000-01-01T03:47:11.000Z</time>
      </trkpt>
      <trkpt lat="46.3575" lon="6.49828">
        <ele>553</ele>
        <time>2000-01-01T03:47:21.000Z</time>
      </trkpt>
      <trkpt lat="46.35736" lon="6.49873">
        <ele>558</ele>
        <time>2000-01-01T03:47:31.000Z</time>
      </trkpt>
      <trkpt lat="46.3571" lon="6.49951">
        <ele>560</ele>
        <time>2000-01-01T03:47:41.000Z</time>
      </trkpt>
      <trkpt lat="46.35716" lon="6.49991">
        <ele>560</ele>
        <time>2000-01-01T03:47:51.000Z</time>
      </trkpt>
      <trkpt lat="46.35725" lon="6.50052">
        <ele>561</ele>
        <time>2000-01-01T03:48:01.000Z</time>
      </trkpt>
      <trkpt lat="46.35749" lon="6.50036">
        <ele>563</ele>
        <time>2000-01-01T03:48:11.000Z</time>
      </trkpt>
      <trkpt lat="46.3578" lon="6.50015">
        <ele>558</ele>
        <time>2000-01-01T03:48:21.000Z</time>
      </trkpt>
      <trkpt lat="46.35821" lon="6.49987">
        <ele>558</ele>
        <time>2000-01-01T03:48:31.000Z</time>
      </trkpt>
      <trkpt lat="46.35854" lon="6.49991">
        <ele>556</ele>
        <time>2000-01-01T03:48:41.000Z</time>
      </trkpt>
      <trkpt lat="46.35887" lon="6.49996">
        <ele>555</ele>
        <time>2000-01-01T03:48:51.000Z</time>
      </trkpt>
      <trkpt lat="46.35937" lon="6.50002">
        <ele>555</ele>
        <time>2000-01-01T03:49:01.000Z</time>
      </trkpt>
      <trkpt lat="46.35953" lon="6.50042">
        <ele>556</ele>
        <time>2000-01-01T03:49:11.000Z</time>
      </trkpt>
      <trkpt lat="46.3597" lon="6.50081">
        <ele>561</ele>
        <time>2000-01-01T03:49:21.000Z</time>
      </trkpt>
      <trkpt lat="46.35989" lon="6.50127">
        <ele>561</ele>
        <time>2000-01-01T03:49:31.000Z</time>
      </trkpt>
      <trkpt lat="46.3602" lon="6.50149">
        <ele>558</ele>
        <time>2000-01-01T03:49:41.000Z</time>
      </trkpt>
      <trkpt lat="46.36051" lon="6.5017">
        <ele>558</ele>
        <time>2000-01-01T03:49:51.000Z</time>
      </trkpt>
      <trkpt lat="46.36112" lon="6.50212">
        <ele>558</ele>
        <time>2000-01-01T03:50:01.000Z</time>
      </trkpt>
      <trkpt lat="46.36139" lon="6.5025">
        <ele>559</ele>
        <time>2000-01-01T03:50:11.000Z</time>
      </trkpt>
      <trkpt lat="46.36167" lon="6.50287">
        <ele>561</ele>
        <time>2000-01-01T03:50:21.000Z</time>
      </trkpt>
      <trkpt lat="46.36195" lon="6.50324">
        <ele>571</ele>
        <time>2000-01-01T03:50:31.000Z</time>
      </trkpt>
      <trkpt lat="46.36223" lon="6.50361">
        <ele>570</ele>
        <time>2000-01-01T03:50:41.000Z</time>
      </trkpt>
      <trkpt lat="46.3626" lon="6.5041">
        <ele>570</ele>
        <time>2000-01-01T03:50:51.000Z</time>
      </trkpt>
      <trkpt lat="46.36283" lon="6.50436">
        <ele>568</ele>
        <time>2000-01-01T03:51:01.000Z</time>
      </trkpt>
      <trkpt lat="46.36274" lon="6.5048">
        <ele>573</ele>
        <time>2000-01-01T03:51:11.000Z</time>
      </trkpt>
      <trkpt lat="46.36264" lon="6.50524">
        <ele>575</ele>
        <time>2000-01-01T03:51:21.000Z</time>
      </trkpt>
      <trkpt lat="46.36252" lon="6.50577">
        <ele>575</ele>
        <time>2000-01-01T03:51:31.000Z</time>
      </trkpt>
      <trkpt lat="46.36219" lon="6.50587">
        <ele>574</ele>
        <time>2000-01-01T03:51:41.000Z</time>
      </trkpt>
      <trkpt lat="46.36187" lon="6.50596">
        <ele>575</ele>
        <time>2000-01-01T03:51:51.000Z</time>
      </trkpt>
      <trkpt lat="46.36135" lon="6.50612">
        <ele>576</ele>
        <time>2000-01-01T03:52:01.000Z</time>
      </trkpt>
      <trkpt lat="46.36117" lon="6.5064">
        <ele>576</ele>
        <time>2000-01-01T03:52:11.000Z</time>
      </trkpt>
      <trkpt lat="46.36094" lon="6.50678">
        <ele>576</ele>
        <time>2000-01-01T03:52:21.000Z</time>
      </trkpt>
      <trkpt lat="46.36095" lon="6.50726">
        <ele>577</ele>
        <time>2000-01-01T03:52:31.000Z</time>
      </trkpt>
      <trkpt lat="46.36095" lon="6.50775">
        <ele>579</ele>
        <time>2000-01-01T03:52:41.000Z</time>
      </trkpt>
      <trkpt lat="46.36097" lon="6.50848">
        <ele>579</ele>
        <time>2000-01-01T03:52:51.000Z</time>
      </trkpt>
      <trkpt lat="46.36094" lon="6.509">
        <ele>580</ele>
        <time>2000-01-01T03:53:01.000Z</time>
      </trkpt>
      <trkpt lat="46.36091" lon="6.50952">
        <ele>581</ele>
        <time>2000-01-01T03:53:11.000Z</time>
      </trkpt>
      <trkpt lat="46.36088" lon="6.51004">
        <ele>583</ele>
        <time>2000-01-01T03:53:21.000Z</time>
      </trkpt>
      <trkpt lat="46.36083" lon="6.51079">
        <ele>581</ele>
        <time>2000-01-01T03:53:31.000Z</time>
      </trkpt>
      <trkpt lat="46.36074" lon="6.51137">
        <ele>583</ele>
        <time>2000-01-01T03:53:41.000Z</time>
      </trkpt>
      <trkpt lat="46.36065" lon="6.51194">
        <ele>581</ele>
        <time>2000-01-01T03:53:51.000Z</time>
      </trkpt>
      <trkpt lat="46.36057" lon="6.51251">
        <ele>583</ele>
        <time>2000-01-01T03:54:01.000Z</time>
      </trkpt>
      <trkpt lat="46.36048" lon="6.51308">
        <ele>582</ele>
        <time>2000-01-01T03:54:11.000Z</time>
      </trkpt>
      <trkpt lat="46.36039" lon="6.51366">
        <ele>582</ele>
        <time>2000-01-01T03:54:21.000Z</time>
      </trkpt>
      <trkpt lat="46.3603" lon="6.51423">
        <ele>587</ele>
        <time>2000-01-01T03:54:31.000Z</time>
      </trkpt>
      <trkpt lat="46.36014" lon="6.51524">
        <ele>592</ele>
        <time>2000-01-01T03:54:41.000Z</time>
      </trkpt>
      <trkpt lat="46.35987" lon="6.51545">
        <ele>599</ele>
        <time>2000-01-01T03:54:51.000Z</time>
      </trkpt>
      <trkpt lat="46.35937" lon="6.51586">
        <ele>606</ele>
        <time>2000-01-01T03:55:01.000Z</time>
      </trkpt>
      <trkpt lat="46.35909" lon="6.51576">
        <ele>607</ele>
        <time>2000-01-01T03:55:11.000Z</time>
      </trkpt>
      <trkpt lat="46.35867" lon="6.51562">
        <ele>607</ele>
        <time>2000-01-01T03:55:21.000Z</time>
      </trkpt>
      <trkpt lat="46.35836" lon="6.51579">
        <ele>606</ele>
        <time>2000-01-01T03:55:31.000Z</time>
      </trkpt>
      <trkpt lat="46.35804" lon="6.51596">
        <ele>611</ele>
        <time>2000-01-01T03:55:41.000Z</time>
      </trkpt>
      <trkpt lat="46.35752" lon="6.51624">
        <ele>616</ele>
        <time>2000-01-01T03:55:51.000Z</time>
      </trkpt>
      <trkpt lat="46.3571" lon="6.51614">
        <ele>614</ele>
        <time>2000-01-01T03:56:01.000Z</time>
      </trkpt>
      <trkpt lat="46.35688" lon="6.51641">
        <ele>615</ele>
        <time>2000-01-01T03:56:11.000Z</time>
      </trkpt>
      <trkpt lat="46.35648" lon="6.51689">
        <ele>617</ele>
        <time>2000-01-01T03:56:21.000Z</time>
      </trkpt>
      <trkpt lat="46.3561" lon="6.51706">
        <ele>619</ele>
        <time>2000-01-01T03:56:31.000Z</time>
      </trkpt>
      <trkpt lat="46.35572" lon="6.51723">
        <ele>619</ele>
        <time>2000-01-01T03:56:41.000Z</time>
      </trkpt>
      <trkpt lat="46.35534" lon="6.5174">
        <ele>615</ele>
        <time>2000-01-01T03:56:51.000Z</time>
      </trkpt>
      <trkpt lat="46.35496" lon="6.51758">
        <ele>614</ele>
        <time>2000-01-01T03:57:01.000Z</time>
      </trkpt>
      <trkpt lat="46.35459" lon="6.51775">
        <ele>614</ele>
        <time>2000-01-01T03:57:11.000Z</time>
      </trkpt>
      <trkpt lat="46.35389" lon="6.51807">
        <ele>617</ele>
        <time>2000-01-01T03:57:21.000Z</time>
      </trkpt>
      <trkpt lat="46.35368" lon="6.51755">
        <ele>617</ele>
        <time>2000-01-01T03:57:31.000Z</time>
      </trkpt>
      <trkpt lat="46.35333" lon="6.51778">
        <ele>618</ele>
        <time>2000-01-01T03:57:41.000Z</time>
      </trkpt>
      <trkpt lat="46.35298" lon="6.518">
        <ele>616</ele>
        <time>2000-01-01T03:57:51.000Z</time>
      </trkpt>
      <trkpt lat="46.35263" lon="6.51823">
        <ele>617</ele>
        <time>2000-01-01T03:58:01.000Z</time>
      </trkpt>
      <trkpt lat="46.35228" lon="6.51845">
        <ele>614</ele>
        <time>2000-01-01T03:58:11.000Z</time>
      </trkpt>
      <trkpt lat="46.35171" lon="6.51882">
        <ele>612</ele>
        <time>2000-01-01T03:58:21.000Z</time>
      </trkpt>
      <trkpt lat="46.35162" lon="6.51929">
        <ele>612</ele>
        <time>2000-01-01T03:58:31.000Z</time>
      </trkpt>
    </trkseg>
  </trk>
</gpx>